Observation data for Palo Duro Canyon State Park Floor on 05/25/2019      Previous  Date  Next       Current Mesonet Observations  Soil Data  Daily Summary Page  Observations in Plain Language
KPD2 250500Z 13006KT 18/15 A2995 RMK A01 T01830146  RH  079%=      5-min Rain = 0
KPD2 250501Z 12006KT 18/15 A2995 RMK A01 T01830146  RH  079%=      5-min Rain = 0
KPD2 250502Z 12004KT 18/15 A2995 RMK A01 T01820145  RH  079%=      5-min Rain = 0
KPD2 250503Z 13004KT 18/15 A2995 RMK A01 T01820145  RH  079%=      5-min Rain = 0
KPD2 250504Z 13003KT 18/15 A2995 RMK A01 T01820145  RH  079%=      5-min Rain = 0
KPD2 250505Z 13002KT 18/15 A2995 RMK A01 T01820145  RH  079%=      5-min Rain = 0
KPD2 250506Z 14003KT 18/15 A2995 RMK A01 T01820145  RH  079%=      5-min Rain = 0
KPD2 250507Z 13004KT 18/15 A2995 RMK A01 T01820145  RH  079%=      5-min Rain = 0
KPD2 250508Z 13004KT 18/15 A2995 RMK A01 T01820145  RH  079%=      5-min Rain = 0
KPD2 250509Z 13005KT 18/15 A2995 RMK A01 T01810145  RH  079%=      5-min Rain = 0
KPD2 250510Z 13005KT 18/14 A2995 RMK A01 T01810144  RH  079%=      5-min Rain = 0
KPD2 250511Z 13005KT 18/14 A2995 RMK A01 T01810144  RH  079%=      5-min Rain = 0
KPD2 250512Z 13005KT 18/15 A2995 RMK A01 T01800145  RH  079%=      5-min Rain = 0
KPD2 250513Z 13005KT 18/14 A2995 RMK A01 T01800144  RH  079%=      5-min Rain = 0
KPD2 250514Z 11004KT 18/14 A2995 RMK A01 T01800144  RH  079%=      5-min Rain = 0
KPD2 250515Z 12002KT 18/14 A2995 RMK A01 T01800144  RH  079%=      5-min Rain = 0
KPD2 250516Z 11003KT 18/14 A2995 RMK A01 T01800144  RH  079%=      5-min Rain = 0
KPD2 250517Z 11004KT 18/14 A2995 RMK A01 T01800144  RH  079%=      5-min Rain = 0
KPD2 250518Z 10006KT 18/14 A2995 RMK A01 T01810144  RH  079%=      5-min Rain = 0
KPD2 250519Z 11006KT 18/15 A2995 RMK A01 T01810145  RH  079%=      5-min Rain = 0
KPD2 250520Z 10005KT 18/15 A2995 RMK A01 T01820145  RH  079%=      5-min Rain = 0
KPD2 250521Z 10004KT 18/15 A2995 RMK A01 T01830145  RH  078%=      5-min Rain = 0
KPD2 250522Z 10004KT 18/15 A2995 RMK A01 T01840145  RH  078%=      5-min Rain = 0
KPD2 250523Z 13003KT 18/14 A2995 RMK A01 T01840144  RH  078%=      5-min Rain = 0
KPD2 250524Z 11003KT 18/14 A2995 RMK A01 T01840144  RH  078%=      5-min Rain = 0
KPD2 250525Z 11003KT 18/14 A2995 RMK A01 T01840144  RH  078%=      5-min Rain = 0
KPD2 250526Z 10003KT 18/14 A2995 RMK A01 T01840143  RH  077%=      5-min Rain = 0
KPD2 250527Z 14004KT 18/14 A2995 RMK A01 T01840143  RH  077%=      5-min Rain = 0
KPD2 250528Z 14005KT 18/14 A2995 RMK A01 T01840144  RH  077%=      5-min Rain = 0
KPD2 250529Z 13005KT 18/14 A2995 RMK A01 T01840144  RH  078%=      5-min Rain = 0
KPD2 250530Z 10005KT 18/14 A2995 RMK A01 T01840144  RH  077%=      5-min Rain = 0
KPD2 250531Z 10005KT 18/14 A2995 RMK A01 T01840143  RH  077%=      5-min Rain = 0
KPD2 250532Z 12003KT 18/14 A2995 RMK A01 T01840142  RH  077%=      5-min Rain = 0
KPD2 250533Z 12004KT 18/14 A2995 RMK A01 T01840142  RH  077%=      5-min Rain = 0
KPD2 250534Z 12006KT 18/14 A2995 RMK A01 T01840142  RH  077%=      5-min Rain = 0
KPD2 250535Z 11005KT 18/14 A2995 RMK A01 T01830141  RH  076%=      5-min Rain = 0
KPD2 250536Z 12005KT 18/14 A2995 RMK A01 T01840140  RH  076%=      5-min Rain = 0
KPD2 250537Z 12006KT 18/14 A2995 RMK A01 T01840139  RH  075%=      5-min Rain = 0
KPD2 250538Z 12008KT 19/14 A2995 RMK A01 T01850140  RH  075%=      5-min Rain = 0
KPD2 250539Z 12005KT 19/14 A2995 RMK A01 T01850140  RH  075%=      5-min Rain = 0
KPD2 250540Z 12005KT 19/14 A2995 RMK A01 T01850140  RH  075%=      5-min Rain = 0
KPD2 250541Z 12006KT 19/14 A2995 RMK A01 T01860141  RH  075%=      5-min Rain = 0
KPD2 250542Z 12004KT 19/14 A2996 RMK A01 T01860141  RH  075%=      5-min Rain = 0
KPD2 250543Z 13005KT 19/14 A2996 RMK A01 T01860141  RH  075%=      5-min Rain = 0
KPD2 250544Z 14006KT 19/14 A2996 RMK A01 T01860140  RH  075%=      5-min Rain = 0
KPD2 250545Z 14006KT 19/14 A2996 RMK A01 T01860141  RH  075%=      5-min Rain = 0
KPD2 250546Z 15007KT 19/14 A2996 RMK A01 T01860141  RH  075%=      5-min Rain = 0
KPD2 250547Z 13008KT 19/14 A2996 RMK A01 T01860142  RH  076%=      5-min Rain = 0
KPD2 250548Z 12007KT 18/14 A2996 RMK A01 T01840142  RH  076%=      5-min Rain = 0
KPD2 250549Z 12007KT 18/14 A2996 RMK A01 T01830142  RH  077%=      5-min Rain = 0
KPD2 250550Z 13007KT 18/14 A2996 RMK A01 T01830141  RH  077%=      5-min Rain = 0
KPD2 250551Z 12006KT 18/14 A2996 RMK A01 T01820141  RH  077%=      5-min Rain = 0
KPD2 250552Z 12006KT 18/14 A2996 RMK A01 T01810139  RH  076%=      5-min Rain = 0
KPD2 250553Z 12007KT 18/14 A2996 RMK A01 T01810137  RH  075%=      5-min Rain = 0
KPD2 250554Z 12006KT 18/13 A2996 RMK A01 T01820134  RH  073%=      5-min Rain = 0
KPD2 250555Z 12005KT 18/13 A2996 RMK A01 T01830133  RH  073%=      5-min Rain = 0
KPD2 250556Z 12008KT 18/13 A2996 RMK A01 T01840131  RH  071%=      5-min Rain = 0
KPD2 250557Z 13007KT 19/13 A2996 RMK A01 T01850130  RH  070%=      5-min Rain = 0
KPD2 250558Z 12007KT 19/13 A2996 RMK A01 T01870129  RH  069%=      5-min Rain = 0
KPD2 250559Z 14007KT 19/13 A2996 RMK A01 T01880128  RH  068%=      5-min Rain = 0
KPD2 250600Z 13006KT 19/13 A2996 RMK A01 T01880129  RH  069%=      5-min Rain = 0
KPD2 250601Z 12006KT 19/13 A2996 RMK A01 T01880129  RH  068%=      5-min Rain = 0
KPD2 250602Z 14006KT 19/13 A2996 RMK A01 T01880128  RH  068%=      5-min Rain = 0
KPD2 250603Z 12006KT 19/13 A2996 RMK A01 T01880128  RH  068%=      5-min Rain = 0
KPD2 250604Z 12006KT 19/13 A2996 RMK A01 T01880128  RH  068%=      5-min Rain = 0
KPD2 250605Z 11006KT 19/13 A2996 RMK A01 T01870128  RH  068%=      5-min Rain = 0
KPD2 250606Z 12007KT 19/13 A2996 RMK A01 T01870128  RH  069%=      5-min Rain = 0
KPD2 250607Z 12006KT 19/13 A2996 RMK A01 T01870128  RH  069%=      5-min Rain = 0
KPD2 250608Z 12007KT 19/13 A2996 RMK A01 T01870129  RH  069%=      5-min Rain = 0
KPD2 250609Z 12007KT 19/13 A2996 RMK A01 T01870129  RH  069%=      5-min Rain = 0
KPD2 250610Z 12008KT 19/13 A2996 RMK A01 T01870130  RH  070%=      5-min Rain = 0
KPD2 250611Z 13006KT 19/13 A2996 RMK A01 T01870131  RH  070%=      5-min Rain = 0
KPD2 250612Z 13006KT 19/13 A2996 RMK A01 T01870131  RH  070%=      5-min Rain = 0
KPD2 250613Z 13007KT 19/13 A2996 RMK A01 T01870132  RH  070%=      5-min Rain = 0
KPD2 250614Z 13005KT 19/13 A2996 RMK A01 T01860132  RH  071%=      5-min Rain = 0
KPD2 250615Z 14006KT 19/13 A2996 RMK A01 T01860133  RH  071%=      5-min Rain = 0
KPD2 250616Z 14006KT 19/13 A2996 RMK A01 T01860133  RH  071%=      5-min Rain = 0
KPD2 250617Z 14006KT 19/13 A2996 RMK A01 T01850133  RH  072%=      5-min Rain = 0
KPD2 250618Z 14005KT 19/13 A2996 RMK A01 T01850133  RH  072%=      5-min Rain = 0
KPD2 250619Z 13005KT 19/13 A2996 RMK A01 T01850134  RH  072%=      5-min Rain = 0
KPD2 250620Z 14005KT 18/13 A2996 RMK A01 T01840134  RH  072%=      5-min Rain = 0
KPD2 250621Z 14005KT 18/13 A2996 RMK A01 T01830133  RH  073%=      5-min Rain = 0
KPD2 250622Z 14004KT 18/13 A2996 RMK A01 T01830134  RH  073%=      5-min Rain = 0
KPD2 250623Z 14005KT 18/13 A2996 RMK A01 T01830134  RH  073%=      5-min Rain = 0
KPD2 250624Z 14005KT 18/13 A2996 RMK A01 T01830134  RH  073%=      5-min Rain = 0
KPD2 250625Z 14005KT 18/13 A2996 RMK A01 T01830134  RH  073%=      5-min Rain = 0
KPD2 250626Z 14005KT 18/13 A2996 RMK A01 T01830134  RH  073%=      5-min Rain = 0
KPD2 250627Z 14005KT 18/13 A2996 RMK A01 T01830134  RH  073%=      5-min Rain = 0
KPD2 250628Z 14005KT 18/13 A2996 RMK A01 T01830134  RH  073%=      5-min Rain = 0
KPD2 250629Z 14005KT 18/13 A2996 RMK A01 T01830134  RH  073%=      5-min Rain = 0
KPD2 250630Z 13005KT 18/13 A2996 RMK A01 T01830134  RH  073%=      5-min Rain = 0
KPD2 250631Z 13004KT 18/13 A2996 RMK A01 T01830134  RH  073%=      5-min Rain = 0
KPD2 250632Z 14004KT 18/13 A2996 RMK A01 T01830134  RH  073%=      5-min Rain = 0
KPD2 250633Z 14004KT 18/14 A2996 RMK A01 T01840135  RH  073%=      5-min Rain = 0
KPD2 250634Z 14005KT 18/14 A2996 RMK A01 T01840135  RH  073%=      5-min Rain = 0
KPD2 250635Z 14007KT 18/14 A2996 RMK A01 T01840137  RH  074%=      5-min Rain = 0
KPD2 250636Z 13005KT 19/14 A2996 RMK A01 T01850140  RH  075%=      5-min Rain = 0
KPD2 250637Z 13004KT 19/14 A2996 RMK A01 T01850140  RH  075%=      5-min Rain = 0
KPD2 250638Z 13005KT 19/14 A2996 RMK A01 T01860139  RH  074%=      5-min Rain = 0
KPD2 250639Z 13006KT 19/14 A2996 RMK A01 T01860139  RH  074%=      5-min Rain = 0
KPD2 250640Z 13005KT 19/14 A2996 RMK A01 T01870140  RH  074%=      5-min Rain = 0
KPD2 250641Z 13005KT 19/14 A2996 RMK A01 T01870140  RH  074%=      5-min Rain = 0
KPD2 250642Z 13005KT 19/14 A2996 RMK A01 T01880142  RH  074%=      5-min Rain = 0
KPD2 250643Z 13006KT 19/14 A2996 RMK A01 T01880142  RH  075%=      5-min Rain = 0
KPD2 250644Z 12005KT 19/14 A2996 RMK A01 T01890143  RH  075%=      5-min Rain = 0
KPD2 250645Z 12006KT 19/14 A2996 RMK A01 T01890144  RH  075%=      5-min Rain = 0
KPD2 250646Z 13006KT 19/15 A2996 RMK A01 T01890145  RH  075%=      5-min Rain = 0
KPD2 250647Z 13005KT 19/15 A2996 RMK A01 T01890145  RH  076%=      5-min Rain = 0
KPD2 250648Z 13005KT 19/15 A2996 RMK A01 T01890145  RH  076%=      5-min Rain = 0
KPD2 250649Z 13004KT 19/15 A2996 RMK A01 T01890146  RH  076%=      5-min Rain = 0
KPD2 250650Z 13004KT 19/15 A2996 RMK A01 T01890146  RH  076%=      5-min Rain = 0
KPD2 250651Z 12004KT 19/15 A2996 RMK A01 T01890146  RH  076%=      5-min Rain = 0
KPD2 250652Z 12005KT 19/15 A2996 RMK A01 T01890147  RH  076%=      5-min Rain = 0
KPD2 250653Z 13005KT 19/15 A2996 RMK A01 T01900147  RH  076%=      5-min Rain = 0
KPD2 250654Z 12005KT 19/15 A2996 RMK A01 T01900147  RH  076%=      5-min Rain = 0
KPD2 250655Z 12006KT 19/15 A2996 RMK A01 T01900147  RH  076%=      5-min Rain = 0
KPD2 250656Z 12004KT 19/15 A2996 RMK A01 T01900147  RH  076%=      5-min Rain = 0
KPD2 250657Z 12004KT 19/15 A2996 RMK A01 T01910148  RH  076%=      5-min Rain = 0
KPD2 250658Z 13003KT 19/15 A2996 RMK A01 T01910148  RH  076%=      5-min Rain = 0
KPD2 250659Z 12004KT 19/15 A2996 RMK A01 T01910148  RH  076%=      5-min Rain = 0
KPD2 250700Z 12003KT 19/15 A2996 RMK A01 T01910148  RH  076%=      5-min Rain = 0
KPD2 250701Z 13005KT 19/15 A2995 RMK A01 T01910148  RH  076%=      5-min Rain = 0
KPD2 250702Z 12005KT 19/15 A2995 RMK A01 T01910148  RH  076%=      5-min Rain = 0
KPD2 250703Z 12006KT 19/15 A2995 RMK A01 T01910148  RH  076%=      5-min Rain = 0
KPD2 250704Z 12005KT 19/15 A2995 RMK A01 T01910149  RH  076%=      5-min Rain = 0
KPD2 250705Z 13004KT 19/15 A2995 RMK A01 T01910148  RH  076%=      5-min Rain = 0
KPD2 250706Z 12004KT 19/15 A2995 RMK A01 T01910148  RH  076%=      5-min Rain = 0
KPD2 250707Z 13005KT 19/15 A2995 RMK A01 T01920149  RH  076%=      5-min Rain = 0
KPD2 250708Z 13004KT 19/15 A2995 RMK A01 T01920149  RH  076%=      5-min Rain = 0
KPD2 250709Z 13003KT 19/15 A2995 RMK A01 T01920149  RH  076%=      5-min Rain = 0
KPD2 250710Z 13004KT 19/15 A2995 RMK A01 T01920150  RH  076%=      5-min Rain = 0
KPD2 250711Z 13004KT 19/15 A2995 RMK A01 T01920150  RH  076%=      5-min Rain = 0
KPD2 250712Z 12003KT 19/15 A2995 RMK A01 T01920150  RH  076%=      5-min Rain = 0
KPD2 250713Z 12004KT 19/15 A2995 RMK A01 T01920150  RH  076%=      5-min Rain = 0
KPD2 250714Z 12004KT 19/15 A2995 RMK A01 T01930150  RH  076%=      5-min Rain = 0
KPD2 250715Z 12005KT 19/15 A2995 RMK A01 T01930151  RH  077%=      5-min Rain = 0
KPD2 250716Z 12004KT 19/15 A2995 RMK A01 T01930151  RH  077%=      5-min Rain = 0
KPD2 250717Z 13005KT 19/15 A2995 RMK A01 T01930151  RH  077%=      5-min Rain = 0
KPD2 250718Z 13006KT 19/15 A2995 RMK A01 T01930151  RH  077%=      5-min Rain = 0
KPD2 250719Z 13005KT 19/15 A2995 RMK A01 T01940152  RH  077%=      5-min Rain = 0
KPD2 250720Z 13004KT 19/15 A2995 RMK A01 T01940152  RH  077%=      5-min Rain = 0
KPD2 250721Z 13004KT 19/15 A2995 RMK A01 T01940152  RH  077%=      5-min Rain = 0
KPD2 250722Z 13005KT 19/15 A2995 RMK A01 T01940152  RH  077%=      5-min Rain = 0
KPD2 250723Z 14006KT 19/15 A2995 RMK A01 T01940152  RH  077%=      5-min Rain = 0
KPD2 250724Z 13006KT 19/15 A2995 RMK A01 T01940153  RH  077%=      5-min Rain = 0
KPD2 250725Z 13005KT 19/15 A2995 RMK A01 T01940153  RH  077%=      5-min Rain = 0
KPD2 250726Z 13004KT 19/15 A2995 RMK A01 T01940153  RH  078%=      5-min Rain = 0
KPD2 250727Z 14004KT 19/15 A2995 RMK A01 T01940154  RH  078%=      5-min Rain = 0
KPD2 250728Z 14005KT 19/15 A2995 RMK A01 T01940154  RH  078%=      5-min Rain = 0
KPD2 250729Z 14004KT 19/15 A2995 RMK A01 T01940154  RH  078%=      5-min Rain = 0
KPD2 250730Z 14003KT 19/15 A2995 RMK A01 T01930154  RH  078%=      5-min Rain = 0
KPD2 250731Z 13004KT 19/15 A2995 RMK A01 T01930154  RH  078%=      5-min Rain = 0
KPD2 250732Z 13004KT 19/16 A2996 RMK A01 T01930155  RH  078%=      5-min Rain = 0
KPD2 250733Z 13003KT 19/16 A2996 RMK A01 T01930155  RH  078%=      5-min Rain = 0
KPD2 250734Z 12004KT 19/16 A2996 RMK A01 T01940155  RH  078%=      5-min Rain = 0
KPD2 250735Z 12005KT 19/16 A2996 RMK A01 T01930155  RH  079%=      5-min Rain = 0
KPD2 250736Z 13005KT 19/16 A2996 RMK A01 T01930155  RH  079%=      5-min Rain = 0
KPD2 250737Z 13003KT 19/16 A2996 RMK A01 T01930155  RH  079%=      5-min Rain = 0
KPD2 250738Z 13003KT 19/16 A2996 RMK A01 T01940156  RH  079%=      5-min Rain = 0
KPD2 250739Z 13004KT 19/16 A2996 RMK A01 T01940156  RH  079%=      5-min Rain = 0
KPD2 250740Z 13003KT 19/16 A2996 RMK A01 T01940156  RH  079%=      5-min Rain = 0
KPD2 250741Z 13003KT 19/16 A2996 RMK A01 T01940156  RH  079%=      5-min Rain = 0
KPD2 250742Z 14004KT 19/16 A2996 RMK A01 T01940156  RH  079%=      5-min Rain = 0
KPD2 250743Z 13003KT 19/16 A2996 RMK A01 T01940157  RH  079%=      5-min Rain = 0
KPD2 250744Z 12003KT 19/16 A2996 RMK A01 T01940157  RH  079%=      5-min Rain = 0
KPD2 250745Z 13003KT 19/16 A2996 RMK A01 T01940157  RH  079%=      5-min Rain = 0
KPD2 250746Z 12003KT 19/16 A2996 RMK A01 T01940157  RH  079%=      5-min Rain = 0
KPD2 250747Z 13003KT 19/16 A2996 RMK A01 T01940157  RH  079%=      5-min Rain = 0
KPD2 250748Z 13004KT 19/16 A2996 RMK A01 T01940157  RH  079%=      5-min Rain = 0
KPD2 250749Z 13003KT 19/16 A2996 RMK A01 T01940158  RH  079%=      5-min Rain = 0
KPD2 250750Z 12003KT 19/16 A2996 RMK A01 T01940158  RH  080%=      5-min Rain = 0
KPD2 250751Z 12004KT 19/16 A2996 RMK A01 T01940158  RH  080%=      5-min Rain = 0
KPD2 250752Z 12004KT 19/16 A2996 RMK A01 T01940158  RH  080%=      5-min Rain = 0
KPD2 250753Z 12003KT 19/16 A2996 RMK A01 T01940158  RH  080%=      5-min Rain = 0
KPD2 250754Z 11002KT 19/16 A2996 RMK A01 T01940158  RH  080%=      5-min Rain = 0
KPD2 250755Z 11002KT 19/16 A2996 RMK A01 T01940158  RH  080%=      5-min Rain = 0
KPD2 250756Z 11003KT 20/16 A2995 RMK A01 T01950159  RH  080%=      5-min Rain = 0
KPD2 250757Z 10003KT 20/16 A2995 RMK A01 T01950159  RH  080%=      5-min Rain = 0
KPD2 250758Z 11003KT 20/16 A2995 RMK A01 T01950159  RH  080%=      5-min Rain = 0
KPD2 250759Z 11003KT 20/16 A2995 RMK A01 T01950160  RH  080%=      5-min Rain = 0
KPD2 250800Z 12002KT 20/16 A2996 RMK A01 T01950160  RH  080%=      5-min Rain = 0
KPD2 250801Z 11002KT 20/16 A2996 RMK A01 T01950160  RH  080%=      5-min Rain = 0
KPD2 250802Z 12001KT 20/16 A2996 RMK A01 T01950161  RH  080%=      5-min Rain = 0
KPD2 250803Z 12002KT 20/16 A2996 RMK A01 T01950161  RH  080%=      5-min Rain = 0
KPD2 250804Z 13003KT 20/16 A2996 RMK A01 T01950161  RH  080%=      5-min Rain = 0
KPD2 250805Z 11003KT 20/16 A2996 RMK A01 T01960162  RH  081%=      5-min Rain = 0
KPD2 250806Z 11002KT 20/16 A2996 RMK A01 T01960162  RH  081%=      5-min Rain = 0
KPD2 250807Z 12004KT 20/16 A2996 RMK A01 T01960162  RH  081%=      5-min Rain = 0
KPD2 250808Z 12003KT 20/16 A2996 RMK A01 T01960162  RH  080%=      5-min Rain = 0
KPD2 250809Z 13003KT 20/16 A2996 RMK A01 T01970162  RH  081%=      5-min Rain = 0
KPD2 250810Z 16002KT 20/16 A2996 RMK A01 T01960162  RH  081%=      5-min Rain = 0
KPD2 250811Z 15003KT 20/16 A2996 RMK A01 T01960162  RH  081%=      5-min Rain = 0
KPD2 250812Z 16003KT 20/16 A2996 RMK A01 T01960162  RH  081%=      5-min Rain = 0
KPD2 250813Z 15003KT 20/16 A2996 RMK A01 T01970164  RH  081%=      5-min Rain = 0
KPD2 250814Z 14003KT 20/16 A2996 RMK A01 T01960164  RH  082%=      5-min Rain = 0
KPD2 250815Z 14003KT 20/17 A2996 RMK A01 T01970165  RH  082%=      5-min Rain = 0
KPD2 250816Z 14003KT 20/17 A2996 RMK A01 T01960165  RH  082%=      5-min Rain = 0
KPD2 250817Z 14003KT 20/16 A2996 RMK A01 T01960164  RH  082%=      5-min Rain = 0
KPD2 250818Z 12003KT 20/16 A2996 RMK A01 T01960164  RH  082%=      5-min Rain = 0
KPD2 250819Z 14004KT 20/16 A2996 RMK A01 T01960164  RH  082%=      5-min Rain = 0
KPD2 250820Z 13003KT 20/17 A2996 RMK A01 T01970165  RH  082%=      5-min Rain = 0
KPD2 250821Z 12004KT 20/17 A2996 RMK A01 T01970165  RH  082%=      5-min Rain = 0
KPD2 250822Z 12003KT 20/17 A2996 RMK A01 T01970165  RH  082%=      5-min Rain = 0
KPD2 250823Z 11004KT 20/17 A2996 RMK A01 T01970165  RH  082%=      5-min Rain = 0
KPD2 250824Z 11004KT 20/17 A2996 RMK A01 T01970165  RH  082%=      5-min Rain = 0
KPD2 250825Z 13004KT 20/17 A2996 RMK A01 T01970165  RH  082%=      5-min Rain = 0
KPD2 250826Z 12005KT 20/17 A2996 RMK A01 T01970166  RH  082%=      5-min Rain = 0
KPD2 250827Z 13005KT 20/17 A2996 RMK A01 T01970165  RH  082%=      5-min Rain = 0
KPD2 250828Z 13004KT 20/17 A2996 RMK A01 T01970165  RH  082%=      5-min Rain = 0
KPD2 250829Z 14005KT 20/17 A2996 RMK A01 T01970166  RH  082%=      5-min Rain = 0
KPD2 250830Z 13005KT 20/17 A2996 RMK A01 T01970166  RH  082%=      5-min Rain = 0
KPD2 250831Z 14005KT 20/17 A2996 RMK A01 T01970166  RH  082%=      5-min Rain = 0
KPD2 250832Z 13004KT 20/17 A2996 RMK A01 T01970166  RH  082%=      5-min Rain = 0
KPD2 250833Z 12004KT 20/17 A2996 RMK A01 T01970167  RH  082%=      5-min Rain = 0
KPD2 250834Z 13004KT 20/17 A2996 RMK A01 T01970166  RH  083%=      5-min Rain = 0
KPD2 250835Z 13006KT 20/17 A2996 RMK A01 T01970166  RH  083%=      5-min Rain = 0
KPD2 250836Z 12005KT 20/17 A2996 RMK A01 T01970166  RH  083%=      5-min Rain = 0
KPD2 250837Z 14004KT 20/17 A2996 RMK A01 T01970167  RH  083%=      5-min Rain = 0
KPD2 250838Z 14005KT 20/17 A2996 RMK A01 T01970167  RH  082%=      5-min Rain = 0
KPD2 250839Z 14004KT 20/17 A2996 RMK A01 T01970167  RH  082%=      5-min Rain = 0
KPD2 250840Z 13006KT 20/17 A2995 RMK A01 T01970167  RH  083%=      5-min Rain = 0
KPD2 250841Z 12006KT 20/17 A2995 RMK A01 T01970167  RH  083%=      5-min Rain = 0
KPD2 250842Z 14005KT 20/17 A2995 RMK A01 T01970167  RH  083%=      5-min Rain = 0
KPD2 250843Z 11005KT 20/17 A2995 RMK A01 T01970167  RH  083%=      5-min Rain = 0
KPD2 250844Z 12005KT 20/17 A2995 RMK A01 T01970167  RH  083%=      5-min Rain = 0
KPD2 250845Z 13006KT 20/17 A2995 RMK A01 T01970167  RH  083%=      5-min Rain = 0
KPD2 250846Z 13006KT 20/17 A2995 RMK A01 T01970167  RH  083%=      5-min Rain = 0
KPD2 250847Z 13006KT 20/17 A2995 RMK A01 T01970167  RH  083%=      5-min Rain = 0
KPD2 250848Z 13005KT 20/17 A2995 RMK A01 T01980167  RH  083%=      5-min Rain = 0
KPD2 250849Z 13006KT 20/17 A2995 RMK A01 T01970167  RH  083%=      5-min Rain = 0
KPD2 250850Z 14006KT 20/17 A2995 RMK A01 T01980167  RH  083%=      5-min Rain = 0
KPD2 250851Z 13005KT 20/17 A2995 RMK A01 T01980168  RH  083%=      5-min Rain = 0
KPD2 250852Z 13006KT 20/17 A2995 RMK A01 T01980168  RH  083%=      5-min Rain = 0
KPD2 250853Z 13005KT 20/17 A2995 RMK A01 T01970167  RH  083%=      5-min Rain = 0
KPD2 250854Z 14005KT 20/17 A2995 RMK A01 T01970168  RH  083%=      5-min Rain = 0
KPD2 250855Z 13007KT 20/17 A2995 RMK A01 T01970168  RH  083%=      5-min Rain = 0
KPD2 250856Z 14007KT 20/17 A2995 RMK A01 T01970168  RH  083%=      5-min Rain = 0
KPD2 250857Z 13005KT 20/17 A2995 RMK A01 T01970168  RH  083%=      5-min Rain = 0
KPD2 250858Z 13006KT 20/17 A2995 RMK A01 T01970168  RH  083%=      5-min Rain = 0
KPD2 250859Z 13005KT 20/17 A2995 RMK A01 T01970168  RH  083%=      5-min Rain = 0
KPD2 250900Z 13006KT 20/17 A2995 RMK A01 T01980168  RH  083%=      5-min Rain = 0
KPD2 250901Z 13006KT 20/17 A2995 RMK A01 T01970168  RH  083%=      5-min Rain = 0
KPD2 250902Z 14006KT 20/17 A2995 RMK A01 T01970168  RH  083%=      5-min Rain = 0
KPD2 250903Z 13006KT 20/17 A2995 RMK A01 T01970168  RH  083%=      5-min Rain = 0
KPD2 250904Z 14005KT 20/17 A2995 RMK A01 T01970168  RH  083%=      5-min Rain = 0
KPD2 250905Z 13006KT 20/17 A2995 RMK A01 T01980168  RH  083%=      5-min Rain = 0
KPD2 250906Z 14005KT 20/17 A2995 RMK A01 T01970168  RH  083%=      5-min Rain = 0
KPD2 250907Z 14005KT 20/17 A2995 RMK A01 T01970169  RH  083%=      5-min Rain = 0
KPD2 250908Z 14006KT 20/17 A2995 RMK A01 T01970169  RH  083%=      5-min Rain = 0
KPD2 250909Z 14006KT 20/17 A2995 RMK A01 T01970169  RH  084%=      5-min Rain = 0
KPD2 250910Z 14006KT 20/17 A2995 RMK A01 T01970169  RH  084%=      5-min Rain = 0
KPD2 250911Z 13006KT 20/17 A2995 RMK A01 T01970169  RH  084%=      5-min Rain = 0
KPD2 250912Z 13007KT 20/17 A2995 RMK A01 T01970169  RH  084%=      5-min Rain = 0
KPD2 250913Z 13007KT 20/17 A2995 RMK A01 T01970169  RH  084%=      5-min Rain = 0
KPD2 250914Z 14008KT 20/17 A2995 RMK A01 T01970169  RH  084%=      5-min Rain = 0
KPD2 250915Z 14007KT 20/17 A2995 RMK A01 T01970170  RH  084%=      5-min Rain = 0
KPD2 250916Z 14006KT 20/17 A2995 RMK A01 T01970170  RH  084%=      5-min Rain = 0
KPD2 250917Z 13007KT 20/17 A2995 RMK A01 T01970170  RH  084%=      5-min Rain = 0
KPD2 250918Z 14006KT 20/17 A2995 RMK A01 T01980170  RH  084%=      5-min Rain = 0
KPD2 250919Z 15007KT 20/17 A2995 RMK A01 T01970170  RH  084%=      5-min Rain = 0
KPD2 250920Z 15008KT 20/17 A2995 RMK A01 T01980171  RH  085%=      5-min Rain = 0
KPD2 250921Z 15009KT 20/17 A2995 RMK A01 T01980171  RH  085%=      5-min Rain = 0
KPD2 250922Z 15009KT 20/17 A2995 RMK A01 T01980172  RH  085%=      5-min Rain = 0
KPD2 250923Z 14007KT 20/17 A2995 RMK A01 T01980172  RH  085%=      5-min Rain = 0
KPD2 250924Z 15008KT 20/17 A2995 RMK A01 T01980172  RH  085%=      5-min Rain = 0
KPD2 250925Z 15007KT 20/17 A2995 RMK A01 T01980172  RH  085%=      5-min Rain = 0
KPD2 250926Z 15006KT 20/17 A2995 RMK A01 T01980172  RH  085%=      5-min Rain = 0
KPD2 250927Z 14007KT 20/17 A2995 RMK A01 T01980172  RH  085%=      5-min Rain = 0
KPD2 250928Z 15008KT 20/17 A2995 RMK A01 T01980172  RH  085%=      5-min Rain = 0
KPD2 250929Z 14007G12KT 20/17 A2995 RMK A01 T01980172  RH  085%=      5-min Rain = 0
KPD2 250930Z 14007KT 20/17 A2995 RMK A01 T01980172  RH  085%=      5-min Rain = 0
KPD2 250931Z 14008KT 20/17 A2995 RMK A01 T01980173  RH  085%=      5-min Rain = 0
KPD2 250932Z 14007KT 20/17 A2995 RMK A01 T01980172  RH  085%=      5-min Rain = 0
KPD2 250933Z 14007KT 20/17 A2995 RMK A01 T01980172  RH  085%=      5-min Rain = 0
KPD2 250934Z 14007KT 20/17 A2995 RMK A01 T01980172  RH  085%=      5-min Rain = 0
KPD2 250935Z 14005KT 20/17 A2995 RMK A01 T01980172  RH  085%=      5-min Rain = 0
KPD2 250936Z 14005KT 20/17 A2995 RMK A01 T01980172  RH  085%=      5-min Rain = 0
KPD2 250937Z 14007KT 20/17 A2995 RMK A01 T01980172  RH  085%=      5-min Rain = 0
KPD2 250938Z 13007KT 20/17 A2995 RMK A01 T01980172  RH  085%=      5-min Rain = 0
KPD2 250939Z 13008KT 20/17 A2995 RMK A01 T01980172  RH  085%=      5-min Rain = 0
KPD2 250940Z 13006KT 20/17 A2995 RMK A01 T01980172  RH  085%=      5-min Rain = 0
KPD2 250941Z 14006KT 20/17 A2995 RMK A01 T01980172  RH  085%=      5-min Rain = 0
KPD2 250942Z 14006KT 20/17 A2995 RMK A01 T01980172  RH  085%=      5-min Rain = 0
KPD2 250943Z 13006KT 20/17 A2995 RMK A01 T01980172  RH  085%=      5-min Rain = 0
KPD2 250944Z 13006KT 20/17 A2995 RMK A01 T01980172  RH  085%=      5-min Rain = 0
KPD2 250945Z 13006KT 20/17 A2995 RMK A01 T01980172  RH  085%=      5-min Rain = 0
KPD2 250946Z 14008KT 20/17 A2995 RMK A01 T01980172  RH  085%=      5-min Rain = 0
KPD2 250947Z 14009KT 20/17 A2995 RMK A01 T01980172  RH  085%=      5-min Rain = 0
KPD2 250948Z 13007KT 20/17 A2995 RMK A01 T01970172  RH  085%=      5-min Rain = 0
KPD2 250949Z 13006KT 20/17 A2995 RMK A01 T01970172  RH  085%=      5-min Rain = 0
KPD2 250950Z 13006KT 20/17 A2995 RMK A01 T01970172  RH  085%=      5-min Rain = 0
KPD2 250951Z 13007KT 20/17 A2995 RMK A01 T01970172  RH  085%=      5-min Rain = 0
KPD2 250952Z 13007KT 20/17 A2995 RMK A01 T01970172  RH  085%=      5-min Rain = 0
KPD2 250953Z 13007KT 20/17 A2995 RMK A01 T01970171  RH  085%=      5-min Rain = 0
KPD2 250954Z 14008KT 20/17 A2995 RMK A01 T01970172  RH  085%=      5-min Rain = 0
KPD2 250955Z 13008KT 20/17 A2995 RMK A01 T01970172  RH  085%=      5-min Rain = 0
KPD2 250956Z 13008KT 20/17 A2995 RMK A01 T01970172  RH  085%=      5-min Rain = 0
KPD2 250957Z 13008KT 20/17 A2995 RMK A01 T01960172  RH  086%=      5-min Rain = 0
KPD2 250958Z 13007KT 20/17 A2995 RMK A01 T01960172  RH  086%=      5-min Rain = 0
KPD2 250959Z 13008KT 20/17 A2995 RMK A01 T01960172  RH  086%=      5-min Rain = 0
KPD2 251000Z 13007KT 20/17 A2995 RMK A01 T01960172  RH  086%=      5-min Rain = 0
KPD2 251001Z 13007KT 20/17 A2995 RMK A01 T01960171  RH  086%=      5-min Rain = 0
KPD2 251002Z 13009KT 20/17 A2995 RMK A01 T01960172  RH  086%=      5-min Rain = 0
KPD2 251003Z 13008KT 20/17 A2995 RMK A01 T01960172  RH  086%=      5-min Rain = 0
KPD2 251004Z 14007KT 20/17 A2995 RMK A01 T01960172  RH  086%=      5-min Rain = 0
KPD2 251005Z 13008KT 20/17 A2995 RMK A01 T01950172  RH  086%=      5-min Rain = 0
KPD2 251006Z 13009KT 20/17 A2995 RMK A01 T01950172  RH  087%=      5-min Rain = 0
KPD2 251007Z 13009KT 20/17 A2995 RMK A01 T01950172  RH  087%=      5-min Rain = 0
KPD2 251008Z 13007KT 20/17 A2995 RMK A01 T01950173  RH  087%=      5-min Rain = 0
KPD2 251009Z 13009KT 20/17 A2995 RMK A01 T01950173  RH  087%=      5-min Rain = 0
KPD2 251010Z 13009KT 20/17 A2995 RMK A01 T01950173  RH  087%=      5-min Rain = 0
KPD2 251011Z 14008KT 20/17 A2995 RMK A01 T01950173  RH  087%=      5-min Rain = 0
KPD2 251012Z 13007KT 20/17 A2995 RMK A01 T01950173  RH  087%=      5-min Rain = 0
KPD2 251013Z 13008KT 20/17 A2995 RMK A01 T01950173  RH  087%=      5-min Rain = 0
KPD2 251014Z 13008KT 20/17 A2995 RMK A01 T01950173  RH  087%=      5-min Rain = 0
KPD2 251015Z 13009KT 20/17 A2996 RMK A01 T01950173  RH  087%=      5-min Rain = 0
KPD2 251016Z 13008KT 20/17 A2996 RMK A01 T01950173  RH  087%=      5-min Rain = 0
KPD2 251017Z 13008KT 20/17 A2996 RMK A01 T01950173  RH  087%=      5-min Rain = 0
KPD2 251018Z 13010KT 20/17 A2996 RMK A01 T01950173  RH  087%=      5-min Rain = 0
KPD2 251019Z 13011KT 20/17 A2995 RMK A01 T01950173  RH  087%=      5-min Rain = 0
KPD2 251020Z 13008KT 20/17 A2995 RMK A01 T01950173  RH  087%=      5-min Rain = 0
KPD2 251021Z 13007KT 20/17 A2995 RMK A01 T01950173  RH  087%=      5-min Rain = 0
KPD2 251022Z 14008KT 20/17 A2995 RMK A01 T01950174  RH  087%=      5-min Rain = 0
KPD2 251023Z 13008KT 20/17 A2995 RMK A01 T01960174  RH  087%=      5-min Rain = 0
KPD2 251024Z 14008KT 20/17 A2995 RMK A01 T01960174  RH  087%=      5-min Rain = 0
KPD2 251025Z 13008KT 20/17 A2995 RMK A01 T01950173  RH  087%=      5-min Rain = 0
KPD2 251026Z 14009KT 20/17 A2995 RMK A01 T01960174  RH  087%=      5-min Rain = 0
KPD2 251027Z 14009KT 20/17 A2995 RMK A01 T01960174  RH  087%=      5-min Rain = 0
KPD2 251028Z 14010KT 20/17 A2995 RMK A01 T01960174  RH  087%=      5-min Rain = 0
KPD2 251029Z 13007KT 20/17 A2995 RMK A01 T01960174  RH  087%=      5-min Rain = 0
KPD2 251030Z 14007KT 20/17 A2995 RMK A01 T01960174  RH  087%=      5-min Rain = 0
KPD2 251031Z 14009KT 20/17 A2995 RMK A01 T01960174  RH  087%=      5-min Rain = 0
KPD2 251032Z 14009KT 20/17 A2995 RMK A01 T01960174  RH  087%=      5-min Rain = 0
KPD2 251033Z 14008KT 20/17 A2995 RMK A01 T01960174  RH  087%=      5-min Rain = 0
KPD2 251034Z 14009KT 20/17 A2995 RMK A01 T01960174  RH  087%=      5-min Rain = 0
KPD2 251035Z 14007KT 20/17 A2995 RMK A01 T01960174  RH  087%=      5-min Rain = 0
KPD2 251036Z 13008KT 20/17 A2995 RMK A01 T01960174  RH  087%=      5-min Rain = 0
KPD2 251037Z 13008KT 20/18 A2995 RMK A01 T01960175  RH  087%=      5-min Rain = 0
KPD2 251038Z 14009KT 20/18 A2996 RMK A01 T01970175  RH  087%=      5-min Rain = 0
KPD2 251039Z 13008KT 20/18 A2996 RMK A01 T01970175  RH  087%=      5-min Rain = 0
KPD2 251040Z 13008KT 20/18 A2996 RMK A01 T01960175  RH  087%=      5-min Rain = 0
KPD2 251041Z 13008KT 20/18 A2996 RMK A01 T01970175  RH  087%=      5-min Rain = 0
KPD2 251042Z 13006KT 20/18 A2996 RMK A01 T01960175  RH  087%=      5-min Rain = 0
KPD2 251043Z 13008KT 20/18 A2996 RMK A01 T01960175  RH  087%=      5-min Rain = 0
KPD2 251044Z 13007KT 20/18 A2996 RMK A01 T01960175  RH  087%=      5-min Rain = 0
KPD2 251045Z 13009KT 20/18 A2996 RMK A01 T01960175  RH  087%=      5-min Rain = 0
KPD2 251046Z 13008KT 20/18 A2996 RMK A01 T01960175  RH  088%=      5-min Rain = 0
KPD2 251047Z 13008KT 20/18 A2996 RMK A01 T01970175  RH  088%=      5-min Rain = 0
KPD2 251048Z 14005KT 20/18 A2996 RMK A01 T01960175  RH  088%=      5-min Rain = 0
KPD2 251049Z 14007KT 20/18 A2996 RMK A01 T01960175  RH  088%=      5-min Rain = 0
KPD2 251050Z 14006KT 20/18 A2996 RMK A01 T01970176  RH  088%=      5-min Rain = 0
KPD2 251051Z 13006KT 20/18 A2996 RMK A01 T01960175  RH  088%=      5-min Rain = 0
KPD2 251052Z 13008KT 20/18 A2996 RMK A01 T01960176  RH  088%=      5-min Rain = 0
KPD2 251053Z 13009KT 20/18 A2996 RMK A01 T01970176  RH  088%=      5-min Rain = 0
KPD2 251054Z 14006KT 20/18 A2996 RMK A01 T01960176  RH  088%=      5-min Rain = 0
KPD2 251055Z 14007KT 20/18 A2996 RMK A01 T01970176  RH  088%=      5-min Rain = 0
KPD2 251056Z 13008KT 20/18 A2996 RMK A01 T01960176  RH  088%=      5-min Rain = 0
KPD2 251057Z 13008KT 20/18 A2996 RMK A01 T01960176  RH  088%=      5-min Rain = 0
KPD2 251058Z 13007KT 20/18 A2996 RMK A01 T01960176  RH  088%=      5-min Rain = 0
KPD2 251059Z 14010KT 20/18 A2996 RMK A01 T01960176  RH  088%=      5-min Rain = 0
KPD2 251100Z 14008KT 20/18 A2996 RMK A01 T01960176  RH  088%=      5-min Rain = 0
KPD2 251101Z 14009KT 20/18 A2996 RMK A01 T01970177  RH  088%=      5-min Rain = 0
KPD2 251102Z 14007KT 20/18 A2996 RMK A01 T01960177  RH  089%=      5-min Rain = 0
KPD2 251103Z 12009KT 20/18 A2996 RMK A01 T01960177  RH  089%=      5-min Rain = 0
KPD2 251104Z 13010KT 20/18 A2996 RMK A01 T01960177  RH  088%=      5-min Rain = 0
KPD2 251105Z 13009KT 20/18 A2996 RMK A01 T01970177  RH  089%=      5-min Rain = 0
KPD2 251106Z 14009KT 20/18 A2996 RMK A01 T01960177  RH  089%=      5-min Rain = 0
KPD2 251107Z 14008KT 20/18 A2996 RMK A01 T01960178  RH  089%=      5-min Rain = 0
KPD2 251108Z 13009KT 20/18 A2997 RMK A01 T01960178  RH  089%=      5-min Rain = 0
KPD2 251109Z 14007KT 20/18 A2997 RMK A01 T01960178  RH  089%=      5-min Rain = 0
KPD2 251110Z 14010KT 20/18 A2997 RMK A01 T01970178  RH  089%=      5-min Rain = 0
KPD2 251111Z 13009KT 20/18 A2997 RMK A01 T01960178  RH  089%=      5-min Rain = 0
KPD2 251112Z 13008KT 20/18 A2997 RMK A01 T01970178  RH  089%=      5-min Rain = 0
KPD2 251113Z 13008G13KT 20/18 A2997 RMK A01 T01960178  RH  089%=      5-min Rain = 0
KPD2 251114Z 14008KT 20/18 A2997 RMK A01 T01960178  RH  089%=      5-min Rain = 0
KPD2 251115Z 14008KT 20/18 A2997 RMK A01 T01960178  RH  089%=      5-min Rain = 0
KPD2 251116Z 14007KT 20/18 A2997 RMK A01 T01960178  RH  089%=      5-min Rain = 0
KPD2 251117Z 13008KT 20/18 A2997 RMK A01 T01960178  RH  089%=      5-min Rain = 0
KPD2 251118Z 13008KT 20/18 A2997 RMK A01 T01960178  RH  089%=      5-min Rain = 0
KPD2 251119Z 14007KT 20/18 A2997 RMK A01 T01960179  RH  089%=      5-min Rain = 0
KPD2 251120Z 14006KT 20/18 A2997 RMK A01 T01960179  RH  089%=      5-min Rain = 0
KPD2 251121Z 13008KT 20/18 A2997 RMK A01 T01970179  RH  089%=      5-min Rain = 0
KPD2 251122Z 13007KT 20/18 A2997 RMK A01 T01970178  RH  089%=      5-min Rain = 0
KPD2 251123Z 13007KT 20/18 A2997 RMK A01 T01970178  RH  089%=      5-min Rain = 0
KPD2 251124Z 13006KT 20/18 A2997 RMK A01 T01970179  RH  089%=      5-min Rain = 0
KPD2 251125Z 12008KT 20/18 A2997 RMK A01 T01970179  RH  089%=      5-min Rain = 0
KPD2 251126Z 13007KT 20/18 A2997 RMK A01 T01970179  RH  089%=      5-min Rain = 0
KPD2 251127Z 13008KT 20/18 A2997 RMK A01 T01970178  RH  089%=      5-min Rain = 0
KPD2 251128Z 12007KT 20/18 A2997 RMK A01 T01970179  RH  089%=      5-min Rain = 0
KPD2 251129Z 13008KT 20/18 A2997 RMK A01 T01970179  RH  089%=      5-min Rain = 0
KPD2 251130Z 14006KT 20/18 A2997 RMK A01 T01970179  RH  089%=      5-min Rain = 0
KPD2 251131Z 13009KT 20/18 A2997 RMK A01 T01970179  RH  089%=      5-min Rain = 0
KPD2 251132Z 13007KT 20/18 A2997 RMK A01 T01970179  RH  089%=      5-min Rain = 0
KPD2 251133Z 12007KT 20/18 A2997 RMK A01 T01970179  RH  089%=      5-min Rain = 0
KPD2 251134Z 13008KT 20/18 A2997 RMK A01 T01970179  RH  089%=      5-min Rain = 0
KPD2 251135Z 12008KT 20/18 A2997 RMK A01 T01980179  RH  089%=      5-min Rain = 0
KPD2 251136Z 12007KT 20/18 A2997 RMK A01 T01970179  RH  089%=      5-min Rain = 0
KPD2 251137Z 12007KT 20/18 A2997 RMK A01 T01970179  RH  089%=      5-min Rain = 0
KPD2 251138Z 13007KT 20/18 A2997 RMK A01 T01970179  RH  089%=      5-min Rain = 0
KPD2 251139Z 13008KT 20/18 A2997 RMK A01 T01970179  RH  089%=      5-min Rain = 0
KPD2 251140Z 12007KT 20/18 A2997 RMK A01 T01970179  RH  089%=      5-min Rain = 0
KPD2 251141Z 13006KT 20/18 A2997 RMK A01 T01970179  RH  089%=      5-min Rain = 0
KPD2 251142Z 13006KT 20/18 A2997 RMK A01 T01970179  RH  089%=      5-min Rain = 0
KPD2 251143Z 12005KT 20/18 A2997 RMK A01 T01970179  RH  089%=      5-min Rain = 0
KPD2 251144Z 13008KT 20/18 A2997 RMK A01 T01970179  RH  089%=      5-min Rain = 0
KPD2 251145Z 13007KT 20/18 A2997 RMK A01 T01980179  RH  089%=      5-min Rain = 0
KPD2 251146Z 13006KT 20/18 A2998 RMK A01 T01980180  RH  089%=      5-min Rain = 0
KPD2 251147Z 12007KT 20/18 A2998 RMK A01 T01980179  RH  089%=      5-min Rain = 0
KPD2 251148Z 13008KT 20/18 A2998 RMK A01 T01980179  RH  089%=      5-min Rain = 0
KPD2 251149Z 12009KT 20/18 A2998 RMK A01 T01980179  RH  089%=      5-min Rain = 0
KPD2 251150Z 12007KT 20/18 A2998 RMK A01 T01980180  RH  089%=      5-min Rain = 0
KPD2 251151Z 13006KT 20/18 A2998 RMK A01 T01980180  RH  089%=      5-min Rain = 0
KPD2 251152Z 13006KT 20/18 A2998 RMK A01 T01980180  RH  089%=      5-min Rain = 0
KPD2 251153Z 12007KT 20/18 A2998 RMK A01 T01980180  RH  089%=      5-min Rain = 0
KPD2 251154Z 12008KT 20/18 A2998 RMK A01 T01990180  RH  089%=      5-min Rain = 0
KPD2 251155Z 13007KT 20/18 A2998 RMK A01 T01990180  RH  089%=      5-min Rain = 0
KPD2 251156Z 12006KT 20/18 A2998 RMK A01 T01990180  RH  089%=      5-min Rain = 0
KPD2 251157Z 12006KT 20/18 A2998 RMK A01 T01990180  RH  089%=      5-min Rain = 0
KPD2 251158Z 13008KT 20/18 A2998 RMK A01 T01990180  RH  089%=      5-min Rain = 0
KPD2 251159Z 12008KT 20/18 A2998 RMK A01 T01990181  RH  089%=      5-min Rain = 0
KPD2 251200Z 13009KT 20/18 A2998 RMK A01 T01990180  RH  089%=      5-min Rain = 0
KPD2 251201Z 13008KT 20/18 A2998 RMK A01 T01990180  RH  089%=      5-min Rain = 0
KPD2 251202Z 12007KT 20/18 A2998 RMK A01 T01990180  RH  089%=      5-min Rain = 0
KPD2 251203Z 13006KT 20/18 A2998 RMK A01 T01990180  RH  089%=      5-min Rain = 0
KPD2 251204Z 13006KT 20/18 A2998 RMK A01 T02000181  RH  089%=      5-min Rain = 0
KPD2 251205Z 12008KT 20/18 A2998 RMK A01 T02000181  RH  089%=      5-min Rain = 0
KPD2 251206Z 12007KT 20/18 A2998 RMK A01 T01990181  RH  089%=      5-min Rain = 0
KPD2 251207Z 12006KT 20/18 A2998 RMK A01 T02000181  RH  089%=      5-min Rain = 0
KPD2 251208Z 12006KT 20/18 A2998 RMK A01 T01990180  RH  089%=      5-min Rain = 0
KPD2 251209Z 12008KT 20/18 A2998 RMK A01 T02000181  RH  089%=      5-min Rain = 0
KPD2 251210Z 12009KT 20/18 A2998 RMK A01 T02000181  RH  089%=      5-min Rain = 0
KPD2 251211Z 13008KT 20/18 A2998 RMK A01 T02000181  RH  089%=      5-min Rain = 0
KPD2 251212Z 13005KT 20/18 A2998 RMK A01 T02000181  RH  089%=      5-min Rain = 0
KPD2 251213Z 13007KT 20/18 A2998 RMK A01 T02000181  RH  089%=      5-min Rain = 0
KPD2 251214Z 13007KT 20/18 A2998 RMK A01 T02000181  RH  089%=      5-min Rain = 0
KPD2 251215Z 13006KT 20/18 A2998 RMK A01 T02000181  RH  089%=      5-min Rain = 0
KPD2 251216Z 13006KT 20/18 A2998 RMK A01 T02000181  RH  089%=      5-min Rain = 0
KPD2 251217Z 13006KT 20/18 A2998 RMK A01 T02000181  RH  089%=      5-min Rain = 0
KPD2 251218Z 12006KT 20/18 A2998 RMK A01 T02000181  RH  089%=      5-min Rain = 0
KPD2 251219Z 12007G12KT 20/18 A2998 RMK A01 T02000181  RH  089%=      5-min Rain = 0
KPD2 251220Z 13006KT 20/18 A2998 RMK A01 T02000181  RH  089%=      5-min Rain = 0
KPD2 251221Z 13006KT 20/18 A2998 RMK A01 T02000181  RH  089%=      5-min Rain = 0
KPD2 251222Z 12007KT 20/18 A2998 RMK A01 T02000181  RH  089%=      5-min Rain = 0
KPD2 251223Z 12006KT 20/18 A2998 RMK A01 T02000181  RH  088%=      5-min Rain = 0
KPD2 251224Z 12007KT 20/18 A2998 RMK A01 T02010181  RH  088%=      5-min Rain = 0
KPD2 251225Z 13008KT 20/18 A2998 RMK A01 T02010181  RH  088%=      5-min Rain = 0
KPD2 251226Z 12006KT 20/18 A2998 RMK A01 T02010181  RH  088%=      5-min Rain = 0
KPD2 251227Z 12007KT 20/18 A2998 RMK A01 T02010182  RH  088%=      5-min Rain = 0
KPD2 251228Z 13007KT 20/18 A2998 RMK A01 T02010182  RH  088%=      5-min Rain = 0
KPD2 251229Z 13008KT 20/18 A2998 RMK A01 T02010182  RH  088%=      5-min Rain = 0
KPD2 251230Z 13006KT 20/18 A2998 RMK A01 T02010182  RH  088%=      5-min Rain = 0
KPD2 251231Z 12005KT 20/18 A2998 RMK A01 T02010181  RH  088%=      5-min Rain = 0
KPD2 251232Z 13007KT 20/18 A2998 RMK A01 T02020182  RH  088%=      5-min Rain = 0
KPD2 251233Z 13006KT 20/18 A2998 RMK A01 T02010182  RH  088%=      5-min Rain = 0
KPD2 251234Z 13006KT 20/18 A2998 RMK A01 T02020182  RH  088%=      5-min Rain = 0
KPD2 251235Z 13008KT 20/18 A2998 RMK A01 T02020182  RH  088%=      5-min Rain = 0
KPD2 251236Z 13007KT 20/18 A2998 RMK A01 T02020182  RH  088%=      5-min Rain = 0
KPD2 251237Z 12007KT 20/18 A2998 RMK A01 T02020182  RH  088%=      5-min Rain = 0
KPD2 251238Z 12006KT 20/18 A2998 RMK A01 T02020182  RH  088%=      5-min Rain = 0
KPD2 251239Z 13008KT 20/18 A2998 RMK A01 T02020183  RH  088%=      5-min Rain = 0
KPD2 251240Z 13007KT 20/18 A2998 RMK A01 T02020182  RH  088%=      5-min Rain = 0
KPD2 251241Z 14006KT 20/18 A2998 RMK A01 T02030183  RH  088%=      5-min Rain = 0
KPD2 251242Z 13007KT 20/18 A2998 RMK A01 T02020182  RH  088%=      5-min Rain = 0
KPD2 251243Z 13006KT 20/18 A2998 RMK A01 T02020182  RH  088%=      5-min Rain = 0
KPD2 251244Z 13008KT 20/18 A2998 RMK A01 T02030183  RH  088%=      5-min Rain = 0
KPD2 251245Z 13008KT 20/18 A2998 RMK A01 T02030183  RH  088%=      5-min Rain = 0
KPD2 251246Z 13008KT 20/18 A2998 RMK A01 T02030183  RH  088%=      5-min Rain = 0
KPD2 251247Z 14006KT 20/18 A2998 RMK A01 T02030183  RH  088%=      5-min Rain = 0
KPD2 251248Z 13007KT 20/18 A2998 RMK A01 T02030183  RH  088%=      5-min Rain = 0
KPD2 251249Z 13006KT 20/18 A2998 RMK A01 T02030183  RH  088%=      5-min Rain = 0
KPD2 251250Z 13009KT 20/18 A2998 RMK A01 T02030183  RH  088%=      5-min Rain = 0
KPD2 251251Z 13008KT 20/18 A2998 RMK A01 T02030183  RH  088%=      5-min Rain = 0
KPD2 251252Z 14007KT 20/18 A2998 RMK A01 T02030183  RH  088%=      5-min Rain = 0
KPD2 251253Z 13007KT 20/18 A2998 RMK A01 T02030183  RH  088%=      5-min Rain = 0
KPD2 251254Z 13008KT 20/18 A2998 RMK A01 T02030183  RH  088%=      5-min Rain = 0
KPD2 251255Z 13008KT 20/18 A2998 RMK A01 T02020182  RH  088%=      5-min Rain = 0
KPD2 251256Z 12008KT 20/18 A2998 RMK A01 T02020183  RH  088%=      5-min Rain = 0
KPD2 251257Z 12007KT 20/18 A2998 RMK A01 T02020182  RH  088%=      5-min Rain = 0
KPD2 251258Z 13007KT 20/18 A2998 RMK A01 T02020183  RH  088%=      5-min Rain = 0
KPD2 251259Z 12006KT 20/18 A2998 RMK A01 T02030183  RH  088%=      5-min Rain = 0
KPD2 251300Z 13008KT 20/18 A2998 RMK A01 T02020183  RH  088%=      5-min Rain = 0
KPD2 251301Z 13005KT 20/18 A2999 RMK A01 T02020183  RH  088%=      5-min Rain = 0
KPD2 251302Z 12006KT 20/18 A2999 RMK A01 T02020183  RH  088%=      5-min Rain = 0
KPD2 251303Z 13005KT 20/18 A2999 RMK A01 T02020182  RH  088%=      5-min Rain = 0
KPD2 251304Z 13007KT 20/18 A2999 RMK A01 T02020183  RH  088%=      5-min Rain = 0
KPD2 251305Z 13007KT 20/18 A2999 RMK A01 T02030183  RH  088%=      5-min Rain = 0
KPD2 251306Z 13006KT 20/18 A2999 RMK A01 T02020183  RH  088%=      5-min Rain = 0
KPD2 251307Z 13006KT 20/18 A2999 RMK A01 T02020183  RH  088%=      5-min Rain = 0
KPD2 251308Z 13006KT 20/18 A2999 RMK A01 T02020182  RH  088%=      5-min Rain = 0
KPD2 251309Z 13006KT 20/18 A2999 RMK A01 T02020182  RH  088%=      5-min Rain = 0
KPD2 251310Z 13005KT 20/18 A2999 RMK A01 T02020182  RH  088%=      5-min Rain = 0
KPD2 251311Z 14007KT 20/18 A2999 RMK A01 T02020183  RH  088%=      5-min Rain = 0
KPD2 251312Z 12006KT 20/18 A2999 RMK A01 T02020182  RH  088%=      5-min Rain = 0
KPD2 251313Z 12006KT 20/18 A2999 RMK A01 T02020182  RH  088%=      5-min Rain = 0
KPD2 251314Z 12007KT 20/18 A2999 RMK A01 T02030183  RH  088%=      5-min Rain = 0
KPD2 251315Z 12005G10KT 20/18 A2999 RMK A01 T02030182  RH  088%=      5-min Rain = 0
KPD2 251316Z 13007KT 20/18 A2999 RMK A01 T02030183  RH  088%=      5-min Rain = 0
KPD2 251317Z 13007KT 20/18 A2999 RMK A01 T02030182  RH  088%=      5-min Rain = 0
KPD2 251318Z 13008KT 20/18 A2999 RMK A01 T02030183  RH  088%=      5-min Rain = 0
KPD2 251319Z 13008KT 20/18 A2999 RMK A01 T02030182  RH  088%=      5-min Rain = 0
KPD2 251320Z 13006KT 20/18 A2999 RMK A01 T02030182  RH  088%=      5-min Rain = 0
KPD2 251321Z 13007KT 20/18 A30 RMK A01 T02030183  RH  088%=      5-min Rain = 0
KPD2 251322Z 13006KT 20/18 A30 RMK A01 T02030183  RH  088%=      5-min Rain = 0
KPD2 251323Z 12008KT 20/18 A30 RMK A01 T02030183  RH  088%=      5-min Rain = 0
KPD2 251324Z 13009KT 20/18 A30 RMK A01 T02030183  RH  088%=      5-min Rain = 0
KPD2 251325Z 12007KT 20/18 A30 RMK A01 T02040183  RH  088%=      5-min Rain = 0
KPD2 251326Z 12005KT 20/18 A30 RMK A01 T02030183  RH  088%=      5-min Rain = 0
KPD2 251327Z 13005KT 20/18 A30 RMK A01 T02030183  RH  088%=      5-min Rain = 0
KPD2 251328Z 13007KT 20/18 A30 RMK A01 T02030183  RH  088%=      5-min Rain = 0
KPD2 251329Z 13006KT 20/18 A30 RMK A01 T02040183  RH  088%=      5-min Rain = 0
KPD2 251330Z 13005KT 20/18 A30 RMK A01 T02040183  RH  088%=      5-min Rain = 0
KPD2 251331Z 12007KT 20/18 A30 RMK A01 T02040183  RH  088%=      5-min Rain = 0
KPD2 251332Z 12006KT 20/18 A30 RMK A01 T02040183  RH  088%=      5-min Rain = 0
KPD2 251333Z 13006KT 20/18 A30 RMK A01 T02040183  RH  088%=      5-min Rain = 0
KPD2 251334Z 12005KT 20/18 A30 RMK A01 T02040183  RH  088%=      5-min Rain = 0
KPD2 251335Z 12006KT 20/18 A30 RMK A01 T02040183  RH  088%=      5-min Rain = 0
KPD2 251336Z 12005KT 20/18 A30 RMK A01 T02040183  RH  088%=      5-min Rain = 0
KPD2 251337Z 13007KT 20/18 A30 RMK A01 T02040183  RH  087%=      5-min Rain = 0
KPD2 251338Z 12007KT 20/18 A30 RMK A01 T02040183  RH  087%=      5-min Rain = 0
KPD2 251339Z 12006KT 20/18 A30 RMK A01 T02040183  RH  087%=      5-min Rain = 0
KPD2 251340Z 12007KT 20/18 A30 RMK A01 T02040183  RH  087%=      5-min Rain = 0
KPD2 251341Z 12007KT 20/18 A30 RMK A01 T02040183  RH  087%=      5-min Rain = 0
KPD2 251342Z 12006KT 20/18 A30 RMK A01 T02040183  RH  087%=      5-min Rain = 0
KPD2 251343Z 11006KT 21/18 A30 RMK A01 T02050183  RH  088%=      5-min Rain = 0
KPD2 251344Z 12008KT 21/18 A30 RMK A01 T02050184  RH  088%=      5-min Rain = 0
KPD2 251345Z 13007KT 21/18 A30 RMK A01 T02050184  RH  087%=      5-min Rain = 0
KPD2 251346Z 13005KT 21/18 A30 RMK A01 T02060184  RH  087%=      5-min Rain = 0
KPD2 251347Z 12006KT 21/18 A3001 RMK A01 T02050184  RH  087%=      5-min Rain = 0
KPD2 251348Z 13005KT 21/18 A3001 RMK A01 T02060184  RH  087%=      5-min Rain = 0
KPD2 251349Z 12007KT 21/18 A30 RMK A01 T02060184  RH  087%=      5-min Rain = 0
KPD2 251350Z 16005KT 21/18 A3001 RMK A01 T02060184  RH  087%=      5-min Rain = 0
KPD2 251351Z 10005KT 21/18 A30 RMK A01 T02060184  RH  087%=      5-min Rain = 0
KPD2 251352Z 11008KT 21/19 A30 RMK A01 T02070185  RH  087%=      5-min Rain = 0
KPD2 251353Z 12007KT 21/19 A30 RMK A01 T02070185  RH  087%=      5-min Rain = 0
KPD2 251354Z 11007KT 21/19 A30 RMK A01 T02080185  RH  087%=      5-min Rain = 0
KPD2 251355Z 11006KT 21/19 A3001 RMK A01 T02090185  RH  086%=      5-min Rain = 0
KPD2 251356Z 14004KT 21/19 A3001 RMK A01 T02090185  RH  086%=      5-min Rain = 0
KPD2 251357Z 12005KT 21/19 A3001 RMK A01 T02090185  RH  086%=      5-min Rain = 0
KPD2 251358Z 13007KT 21/19 A3001 RMK A01 T02100186  RH  086%=      5-min Rain = 0
KPD2 251359Z 12007KT 21/19 A30 RMK A01 T02100185  RH  086%=      5-min Rain = 0
KPD2 251400Z 12005KT 21/19 A30 RMK A01 T02100186  RH  086%=      5-min Rain = 0
KPD2 251401Z 11006KT 21/19 A30 RMK A01 T02110186  RH  086%=      5-min Rain = 0
KPD2 251402Z 13008KT 21/19 A30 RMK A01 T02110186  RH  086%=      5-min Rain = 0
KPD2 251403Z 11004KT 21/19 A30 RMK A01 T02120186  RH  085%=      5-min Rain = 0
KPD2 251404Z 13004G11KT 21/19 A30 RMK A01 T02120186  RH  085%=      5-min Rain = 0
KPD2 251405Z 15007KT 21/19 A30 RMK A01 T02120186  RH  085%=      5-min Rain = 0
KPD2 251406Z 15004KT 21/19 A30 RMK A01 T02120186  RH  085%=      5-min Rain = 0
KPD2 251407Z 13008KT 21/19 A30 RMK A01 T02120186  RH  085%=      5-min Rain = 0
KPD2 251408Z 16007KT 21/19 A3001 RMK A01 T02120186  RH  085%=      5-min Rain = 0
KPD2 251409Z 15003KT 21/19 A30 RMK A01 T02120186  RH  085%=      5-min Rain = 0
KPD2 251410Z 13005KT 21/19 A3001 RMK A01 T02120186  RH  085%=      5-min Rain = 0
KPD2 251411Z 14007KT 21/19 A3001 RMK A01 T02120186  RH  085%=      5-min Rain = 0
KPD2 251412Z 13007KT 21/19 A3001 RMK A01 T02120186  RH  085%=      5-min Rain = 0
KPD2 251413Z 12005KT 21/19 A3001 RMK A01 T02130186  RH  085%=      5-min Rain = 0
KPD2 251414Z 12006KT 21/19 A30 RMK A01 T02120186  RH  085%=      5-min Rain = 0
KPD2 251415Z 12007KT 21/19 A30 RMK A01 T02130187  RH  085%=      5-min Rain = 0
KPD2 251416Z 13009G14KT 21/19 A30 RMK A01 T02140187  RH  085%=      5-min Rain = 0
KPD2 251417Z 14007KT 22/19 A30 RMK A01 T02150187  RH  085%=      5-min Rain = 0
KPD2 251418Z 13006KT 22/19 A30 RMK A01 T02150187  RH  084%=      5-min Rain = 0
KPD2 251419Z 15006KT 22/19 A30 RMK A01 T02150187  RH  084%=      5-min Rain = 0
KPD2 251420Z 15004KT 22/19 A30 RMK A01 T02160188  RH  084%=      5-min Rain = 0
KPD2 251421Z 14003G9KT 22/19 A30 RMK A01 T02160188  RH  084%=      5-min Rain = 0
KPD2 251422Z 13008KT 22/19 A30 RMK A01 T02170188  RH  084%=      5-min Rain = 0
KPD2 251423Z 13003KT 22/19 A30 RMK A01 T02180188  RH  083%=      5-min Rain = 0
KPD2 251424Z 17005KT 22/19 A30 RMK A01 T02180188  RH  083%=      5-min Rain = 0
KPD2 251425Z 17004KT 22/19 A30 RMK A01 T02180188  RH  083%=      5-min Rain = 0
KPD2 251426Z 15004KT 22/19 A30 RMK A01 T02180189  RH  083%=      5-min Rain = 0
KPD2 251427Z 18004KT 22/19 A30 RMK A01 T02190189  RH  083%=      5-min Rain = 0
KPD2 251428Z 15002KT 22/19 A30 RMK A01 T02210191  RH  083%=      5-min Rain = 0
KPD2 251429Z 13005KT 22/19 A30 RMK A01 T02210190  RH  083%=      5-min Rain = 0
KPD2 251430Z 12006KT 22/19 A30 RMK A01 T02220190  RH  082%=      5-min Rain = 0
KPD2 251431Z 14008KT 22/19 A30 RMK A01 T02230190  RH  082%=      5-min Rain = 0
KPD2 251432Z 15008KT 22/19 A30 RMK A01 T02230190  RH  081%=      5-min Rain = 0
KPD2 251433Z 19006KT 22/19 A30 RMK A01 T02230189  RH  081%=      5-min Rain = 0
KPD2 251434Z 14008KT 22/19 A30 RMK A01 T02230190  RH  081%=      5-min Rain = 0
KPD2 251435Z 13006KT 22/19 A30 RMK A01 T02230189  RH  081%=      5-min Rain = 0
KPD2 251436Z 15005KT 22/19 A30 RMK A01 T02230190  RH  081%=      5-min Rain = 0
KPD2 251437Z 14005KT 22/19 A30 RMK A01 T02230189  RH  081%=      5-min Rain = 0
KPD2 251438Z 20005KT 22/19 A30 RMK A01 T02240190  RH  081%=      5-min Rain = 0
KPD2 251439Z 18007KT 22/19 A3001 RMK A01 T02240190  RH  081%=      5-min Rain = 0
KPD2 251440Z 18003KT 23/19 A3001 RMK A01 T02250190  RH  080%=      5-min Rain = 0
KPD2 251441Z 15002KT 23/19 A30 RMK A01 T02250189  RH  080%=      5-min Rain = 0
KPD2 251442Z 13004KT 23/19 A30 RMK A01 T02250191  RH  081%=      5-min Rain = 0
KPD2 251443Z 14006KT 23/19 A30 RMK A01 T02260191  RH  080%=      5-min Rain = 0
KPD2 251444Z 16006KT 23/19 A30 RMK A01 T02260190  RH  080%=      5-min Rain = 0
KPD2 251445Z 19003KT 23/19 A30 RMK A01 T02270191  RH  080%=      5-min Rain = 0
KPD2 251446Z 19004KT 23/19 A30 RMK A01 T02280192  RH  080%=      5-min Rain = 0
KPD2 251447Z 18004KT 23/19 A30 RMK A01 T02290192  RH  079%=      5-min Rain = 0
KPD2 251448Z 20008KT 23/19 A30 RMK A01 T02300191  RH  079%=      5-min Rain = 0
KPD2 251449Z 20001KT 23/19 A30 RMK A01 T02290191  RH  079%=      5-min Rain = 0
KPD2 251450Z 20003KT 23/19 A30 RMK A01 T02290191  RH  079%=      5-min Rain = 0
KPD2 251451Z 15005KT 23/19 A30 RMK A01 T02300192  RH  079%=      5-min Rain = 0
KPD2 251452Z 09002KT 23/19 A30 RMK A01 T02310193  RH  079%=      5-min Rain = 0
KPD2 251453Z 16004KT 23/19 A30 RMK A01 T02320192  RH  078%=      5-min Rain = 0
KPD2 251454Z 15004KT 23/19 A30 RMK A01 T02320191  RH  078%=      5-min Rain = 0
KPD2 251455Z 19002KT 23/19 A30 RMK A01 T02320192  RH  078%=      5-min Rain = 0
KPD2 251456Z 16003KT 23/19 A30 RMK A01 T02320192  RH  078%=      5-min Rain = 0
KPD2 251457Z 15003KT 23/19 A30 RMK A01 T02320192  RH  078%=      5-min Rain = 0
KPD2 251458Z 15004KT 23/19 A30 RMK A01 T02330193  RH  078%=      5-min Rain = 0
KPD2 251459Z 16003KT 23/19 A30 RMK A01 T02340193  RH  078%=      5-min Rain = 0
KPD2 251500Z 16004KT 24/19 A30 RMK A01 T02350193  RH  077%=      5-min Rain = 0
KPD2 251501Z 14005KT 24/19 A30 RMK A01 T02350193  RH  077%=      5-min Rain = 0
KPD2 251502Z 15005KT 24/19 A30 RMK A01 T02350193  RH  077%=      5-min Rain = 0
KPD2 251503Z 14006KT 24/19 A30 RMK A01 T02360193  RH  077%=      5-min Rain = 0
KPD2 251504Z 15005KT 24/19 A30 RMK A01 T02360192  RH  076%=      5-min Rain = 0
KPD2 251505Z 18008KT 24/19 A30 RMK A01 T02360192  RH  076%=      5-min Rain = 0
KPD2 251506Z 22007KT 24/19 A30 RMK A01 T02360191  RH  076%=      5-min Rain = 0
KPD2 251507Z 18005KT 24/19 A3001 RMK A01 T02360192  RH  076%=      5-min Rain = 0
KPD2 251508Z 16005KT 24/19 A30 RMK A01 T02350191  RH  076%=      5-min Rain = 0
KPD2 251509Z 18003KT 24/19 A3001 RMK A01 T02350191  RH  076%=      5-min Rain = 0
KPD2 251510Z 20008KT 24/19 A3001 RMK A01 T02350191  RH  076%=      5-min Rain = 0
KPD2 251511Z 18008G13KT 24/19 A30 RMK A01 T02350190  RH  076%=      5-min Rain = 0
KPD2 251512Z 18009KT 24/19 A30 RMK A01 T02350190  RH  076%=      5-min Rain = 0
KPD2 251513Z 20008KT 24/19 A30 RMK A01 T02350191  RH  076%=      5-min Rain = 0
KPD2 251514Z 17003KT 24/19 A30 RMK A01 T02350191  RH  076%=      5-min Rain = 0
KPD2 251515Z 16004KT 24/19 A30 RMK A01 T02360192  RH  076%=      5-min Rain = 0
KPD2 251516Z 15005KT 24/19 A30 RMK A01 T02360192  RH  076%=      5-min Rain = 0
KPD2 251517Z 14005KT 24/19 A30 RMK A01 T02370192  RH  076%=      5-min Rain = 0
KPD2 251518Z 13004KT 24/19 A30 RMK A01 T02370192  RH  076%=      5-min Rain = 0
KPD2 251519Z 18004KT 24/19 A30 RMK A01 T02380193  RH  076%=      5-min Rain = 0
KPD2 251520Z 19006KT 24/20 A30 RMK A01 T02390195  RH  076%=      5-min Rain = 0
KPD2 251521Z 16007KT 24/19 A30 RMK A01 T02400193  RH  075%=      5-min Rain = 0
KPD2 251522Z 14008KT 24/19 A30 RMK A01 T02400193  RH  075%=      5-min Rain = 0
KPD2 251523Z 19006KT 24/19 A30 RMK A01 T02400192  RH  075%=      5-min Rain = 0
KPD2 251524Z 17005KT 24/19 A30 RMK A01 T02400192  RH  075%=      5-min Rain = 0
KPD2 251525Z 18008KT 24/19 A30 RMK A01 T02400192  RH  075%=      5-min Rain = 0
KPD2 251526Z 17006KT 24/19 A30 RMK A01 T02390192  RH  075%=      5-min Rain = 0
KPD2 251527Z 15006KT 24/19 A30 RMK A01 T02390193  RH  075%=      5-min Rain = 0
KPD2 251528Z 15010KT 24/19 A30 RMK A01 T02390193  RH  075%=      5-min Rain = 0
KPD2 251529Z 13008G14KT 24/19 A30 RMK A01 T02400193  RH  075%=      5-min Rain = 0
KPD2 251530Z 14005KT 24/19 A30 RMK A01 T02410193  RH  074%=      5-min Rain = 0
KPD2 251531Z 14009KT 24/19 A30 RMK A01 T02420193  RH  074%=      5-min Rain = 0
KPD2 251532Z 16010KT 24/19 A30 RMK A01 T02420193  RH  074%=      5-min Rain = 0
KPD2 251533Z 15008KT 24/19 A30 RMK A01 T02420194  RH  074%=      5-min Rain = 0
KPD2 251534Z 14008KT 24/19 A30 RMK A01 T02420194  RH  074%=      5-min Rain = 0
KPD2 251535Z 13007KT 24/19 A30 RMK A01 T02430194  RH  074%=      5-min Rain = 0
KPD2 251536Z 14008KT 24/19 A30 RMK A01 T02430193  RH  073%=      5-min Rain = 0
KPD2 251537Z 15006KT 24/19 A30 RMK A01 T02430193  RH  073%=      5-min Rain = 0
KPD2 251538Z 15007KT 24/19 A30 RMK A01 T02430194  RH  074%=      5-min Rain = 0
KPD2 251539Z 15005KT 24/19 A30 RMK A01 T02430193  RH  074%=      5-min Rain = 0
KPD2 251540Z 17007G13KT 24/19 A30 RMK A01 T02420193  RH  074%=      5-min Rain = 0
KPD2 251541Z 17003G9KT 24/19 A30 RMK A01 T02420191  RH  073%=      5-min Rain = 0
KPD2 251542Z 19009KT 24/19 A30 RMK A01 T02410191  RH  074%=      5-min Rain = 0
KPD2 251543Z 22006KT 24/19 A30 RMK A01 T02410191  RH  074%=      5-min Rain = 0
KPD2 251544Z 21007KT 24/19 A30 RMK A01 T02410192  RH  074%=      5-min Rain = 0
KPD2 251545Z 18005KT 24/19 A2999 RMK A01 T02400191  RH  074%=      5-min Rain = 0
KPD2 251546Z 19003KT 24/19 A30 RMK A01 T02410192  RH  074%=      5-min Rain = 0
KPD2 251547Z 21004KT 24/19 A30 RMK A01 T02420194  RH  075%=      5-min Rain = 0
KPD2 251548Z 20004KT 24/19 A30 RMK A01 T02440193  RH  073%=      5-min Rain = 0
KPD2 251549Z 18003KT 24/20 A2999 RMK A01 T02440195  RH  074%=      5-min Rain = 0
KPD2 251550Z 18004KT 25/20 A2999 RMK A01 T02460195  RH  073%=      5-min Rain = 0
KPD2 251551Z 21003KT 25/19 A2999 RMK A01 T02470193  RH  072%=      5-min Rain = 0
KPD2 251552Z 16005KT 25/19 A2999 RMK A01 T02470194  RH  072%=      5-min Rain = 0
KPD2 251553Z 16004KT 25/20 A2999 RMK A01 T02480195  RH  072%=      5-min Rain = 0
KPD2 251554Z 14007KT 25/20 A2999 RMK A01 T02490196  RH  072%=      5-min Rain = 0
KPD2 251555Z 16005KT 25/20 A2999 RMK A01 T02500195  RH  071%=      5-min Rain = 0
KPD2 251556Z 18004KT 25/20 A2999 RMK A01 T02510195  RH  071%=      5-min Rain = 0
KPD2 251557Z 15005G13KT 25/20 A2999 RMK A01 T02510195  RH  071%=      5-min Rain = 0
KPD2 251558Z 15008KT 25/20 A2999 RMK A01 T02510195  RH  071%=      5-min Rain = 0
KPD2 251559Z 14004KT 25/19 A2999 RMK A01 T02500194  RH  071%=      5-min Rain = 0
KPD2 251600Z 15009KT 25/19 A2999 RMK A01 T02500194  RH  071%=      5-min Rain = 0
KPD2 251601Z 15009KT 25/19 A2999 RMK A01 T02490194  RH  071%=      5-min Rain = 0
KPD2 251602Z 14006KT 25/19 A2999 RMK A01 T02470193  RH  072%=      5-min Rain = 0
KPD2 251603Z 16009KT 25/19 A2999 RMK A01 T02470194  RH  072%=      5-min Rain = 0
KPD2 251604Z 17008KT 25/19 A2999 RMK A01 T02470193  RH  072%=      5-min Rain = 0
KPD2 251605Z 14008KT 25/19 A2999 RMK A01 T02460194  RH  072%=      5-min Rain = 0
KPD2 251606Z 15010KT 25/19 A2999 RMK A01 T02470194  RH  072%=      5-min Rain = 0
KPD2 251607Z 15013KT 25/19 A2999 RMK A01 T02480193  RH  071%=      5-min Rain = 0
KPD2 251608Z 16009KT 25/19 A2999 RMK A01 T02490192  RH  070%=      5-min Rain = 0
KPD2 251609Z 16010KT 25/19 A2999 RMK A01 T02490192  RH  071%=      5-min Rain = 0
KPD2 251610Z 16006KT 25/19 A2999 RMK A01 T02490193  RH  071%=      5-min Rain = 0
KPD2 251611Z 16007KT 25/19 A2999 RMK A01 T02500194  RH  071%=      5-min Rain = 0
KPD2 251612Z 13009KT 25/19 A2999 RMK A01 T02510194  RH  071%=      5-min Rain = 0
KPD2 251613Z 16011KT 25/19 A2999 RMK A01 T02520193  RH  070%=      5-min Rain = 0
KPD2 251614Z 17007KT 25/19 A2999 RMK A01 T02520193  RH  070%=      5-min Rain = 0
KPD2 251615Z 14009KT 25/19 A2999 RMK A01 T02510193  RH  070%=      5-min Rain = 0
KPD2 251616Z 16007G14KT 25/19 A2999 RMK A01 T02500192  RH  070%=      5-min Rain = 0
KPD2 251617Z 15012G17KT 25/19 A2999 RMK A01 T02490192  RH  071%=      5-min Rain = 0
KPD2 251618Z 16013KT 25/19 A2999 RMK A01 T02480191  RH  071%=      5-min Rain = 0
KPD2 251619Z 15008KT 25/19 A2999 RMK A01 T02470191  RH  071%=      5-min Rain = 0
KPD2 251620Z 13008KT 25/19 A2999 RMK A01 T02460192  RH  072%=      5-min Rain = 0
KPD2 251621Z 14013G18KT 25/19 A2999 RMK A01 T02460192  RH  072%=      5-min Rain = 0
KPD2 251622Z 14009G15KT 25/19 A2999 RMK A01 T02460192  RH  072%=      5-min Rain = 0
KPD2 251623Z 16008KT 25/19 A2999 RMK A01 T02460192  RH  072%=      5-min Rain = 0
KPD2 251624Z 18007KT 25/19 A2999 RMK A01 T02460192  RH  072%=      5-min Rain = 0
KPD2 251625Z 15008KT 25/19 A2999 RMK A01 T02460192  RH  072%=      5-min Rain = 0
KPD2 251626Z 18004KT 25/19 A2999 RMK A01 T02460193  RH  072%=      5-min Rain = 0
KPD2 251627Z 16007KT 25/19 A2999 RMK A01 T02470193  RH  072%=      5-min Rain = 0
KPD2 251628Z 17008KT 25/19 A2999 RMK A01 T02470192  RH  071%=      5-min Rain = 0
KPD2 251629Z 17006KT 25/19 A2999 RMK A01 T02470192  RH  072%=      5-min Rain = 0
KPD2 251630Z 15009KT 25/19 A2999 RMK A01 T02460193  RH  072%=      5-min Rain = 0
KPD2 251631Z 16008KT 25/19 A2999 RMK A01 T02460193  RH  073%=      5-min Rain = 0
KPD2 251632Z 16010KT 25/19 A2999 RMK A01 T02460194  RH  073%=      5-min Rain = 0
KPD2 251633Z 15007G13KT 25/19 A2999 RMK A01 T02460194  RH  073%=      5-min Rain = 0
KPD2 251634Z 14010KT 25/19 A2999 RMK A01 T02450194  RH  073%=      5-min Rain = 0
KPD2 251635Z 15010KT 25/19 A2999 RMK A01 T02450194  RH  073%=      5-min Rain = 0
KPD2 251636Z 16009KT 25/19 A2999 RMK A01 T02450193  RH  073%=      5-min Rain = 0
KPD2 251637Z 15009KT 24/19 A2999 RMK A01 T02440193  RH  073%=      5-min Rain = 0
KPD2 251638Z 16006KT 24/19 A30 RMK A01 T02440194  RH  074%=      5-min Rain = 0
KPD2 251639Z 15008KT 24/19 A30 RMK A01 T02440194  RH  074%=      5-min Rain = 0
KPD2 251640Z 15009KT 25/19 A30 RMK A01 T02450194  RH  073%=      5-min Rain = 0
KPD2 251641Z 15009KT 25/19 A30 RMK A01 T02450194  RH  073%=      5-min Rain = 0
KPD2 251642Z 15008KT 24/19 A30 RMK A01 T02440194  RH  074%=      5-min Rain = 0
KPD2 251643Z 15008KT 24/20 A30 RMK A01 T02440195  RH  074%=      5-min Rain = 0
KPD2 251644Z 14010KT 25/20 A30 RMK A01 T02450195  RH  074%=      5-min Rain = 0
KPD2 251645Z 14009KT 25/19 A30 RMK A01 T02460194  RH  073%=      5-min Rain = 0
KPD2 251646Z 15010KT 25/20 A30 RMK A01 T02470195  RH  073%=      5-min Rain = 0
KPD2 251647Z 15011KT 25/19 A30 RMK A01 T02490194  RH  072%=      5-min Rain = 0
KPD2 251648Z 16010KT 25/20 A30 RMK A01 T02480195  RH  072%=      5-min Rain = 0
KPD2 251649Z 16008G14KT 25/20 A2999 RMK A01 T02490195  RH  072%=      5-min Rain = 0
KPD2 251650Z 17011KT 25/20 A30 RMK A01 T02500195  RH  071%=      5-min Rain = 0
KPD2 251651Z 15008KT 25/20 A30 RMK A01 T02510195  RH  071%=      5-min Rain = 0
KPD2 251652Z 16007KT 25/20 A30 RMK A01 T02530197  RH  071%=      5-min Rain = 0
KPD2 251653Z 18008KT 26/20 A30 RMK A01 T02550197  RH  070%=      5-min Rain = 0
KPD2 251654Z 17007KT 26/20 A30 RMK A01 T02560197  RH  070%=      5-min Rain = 0
KPD2 251655Z 17007KT 26/20 A30 RMK A01 T02560198  RH  070%=      5-min Rain = 0
KPD2 251656Z 17007KT 26/20 A30 RMK A01 T02560197  RH  069%=      5-min Rain = 0
KPD2 251657Z 17009KT 26/20 A30 RMK A01 T02560196  RH  069%=      5-min Rain = 0
KPD2 251658Z 17009G14KT 26/20 A30 RMK A01 T02550196  RH  070%=      5-min Rain = 0
KPD2 251659Z 18008KT 25/19 A30 RMK A01 T02530194  RH  070%=      5-min Rain = 0
KPD2 251700Z 16008KT 25/20 A30 RMK A01 T02500196  RH  072%=      5-min Rain = 0
KPD2 251701Z 16011KT 25/20 A30 RMK A01 T02500195  RH  072%=      5-min Rain = 0
KPD2 251702Z 16009KT 25/20 A30 RMK A01 T02510195  RH  071%=      5-min Rain = 0
KPD2 251703Z 14012G18KT 25/20 A30 RMK A01 T02500195  RH  072%=      5-min Rain = 0
KPD2 251704Z 15009G14KT 25/20 A30 RMK A01 T02490195  RH  072%=      5-min Rain = 0
KPD2 251705Z 15010KT 25/20 A30 RMK A01 T02490195  RH  072%=      5-min Rain = 0
KPD2 251706Z 16008KT 25/20 A30 RMK A01 T02500196  RH  072%=      5-min Rain = 0
KPD2 251707Z 16011KT 25/19 A30 RMK A01 T02510194  RH  071%=      5-min Rain = 0
KPD2 251708Z 17010KT 25/20 A30 RMK A01 T02490195  RH  072%=      5-min Rain = 0
KPD2 251709Z 16009G14KT 25/20 A30 RMK A01 T02480195  RH  072%=      5-min Rain = 0
KPD2 251710Z 16012KT 25/20 A30 RMK A01 T02490196  RH  072%=      5-min Rain = 0
KPD2 251711Z 16010KT 25/19 A30 RMK A01 T02480194  RH  072%=      5-min Rain = 0
KPD2 251712Z 17010G15KT 25/20 A30 RMK A01 T02480195  RH  072%=      5-min Rain = 0
KPD2 251713Z 16007KT 25/20 A30 RMK A01 T02470195  RH  073%=      5-min Rain = 0
KPD2 251714Z 15007KT 25/20 A30 RMK A01 T02470196  RH  073%=      5-min Rain = 0
KPD2 251715Z 15009KT 25/20 A30 RMK A01 T02500197  RH  072%=      5-min Rain = 0
KPD2 251716Z 14011KT 25/20 A30 RMK A01 T02500196  RH  072%=      5-min Rain = 0
KPD2 251717Z 17010KT 25/20 A30 RMK A01 T02510196  RH  072%=      5-min Rain = 0
KPD2 251718Z 17011KT 25/20 A30 RMK A01 T02490195  RH  072%=      5-min Rain = 0
KPD2 251719Z 17012KT 25/19 A30 RMK A01 T02460194  RH  073%=      5-min Rain = 0
KPD2 251720Z 17011KT 25/20 A30 RMK A01 T02450195  RH  073%=      5-min Rain = 0
KPD2 251721Z 16011G16KT 25/19 A30 RMK A01 T02460194  RH  073%=      5-min Rain = 0
KPD2 251722Z 18007KT 25/20 A30 RMK A01 T02460195  RH  073%=      5-min Rain = 0
KPD2 251723Z 14010KT 25/20 A30 RMK A01 T02460195  RH  073%=      5-min Rain = 0
KPD2 251724Z 15009KT 25/19 A30 RMK A01 T02470194  RH  072%=      5-min Rain = 0
KPD2 251725Z 17007KT 25/20 A30 RMK A01 T02480195  RH  073%=      5-min Rain = 0
KPD2 251726Z 16007KT 25/20 A30 RMK A01 T02480196  RH  073%=      5-min Rain = 0
KPD2 251727Z 15009KT 25/20 A30 RMK A01 T02490197  RH  073%=      5-min Rain = 0
KPD2 251728Z 15006KT 25/20 A30 RMK A01 T02490197  RH  073%=      5-min Rain = 0
KPD2 251729Z 13007KT 25/20 A30 RMK A01 T02490197  RH  073%=      5-min Rain = 0
KPD2 251730Z 13008KT 25/20 A30 RMK A01 T02500196  RH  072%=      5-min Rain = 0
KPD2 251731Z 16007KT 25/20 A30 RMK A01 T02500196  RH  072%=      5-min Rain = 0
KPD2 251732Z 14010KT 25/20 A30 RMK A01 T02500196  RH  072%=      5-min Rain = 0
KPD2 251733Z 15008KT 25/20 A30 RMK A01 T02480195  RH  072%=      5-min Rain = 0
KPD2 251734Z 15008KT 25/20 A30 RMK A01 T02480196  RH  073%=      5-min Rain = 0
KPD2 251735Z 16009KT 25/20 A30 RMK A01 T02470196  RH  073%=      5-min Rain = 0
KPD2 251736Z 15010KT 25/20 A30 RMK A01 T02470195  RH  073%=      5-min Rain = 0
KPD2 251737Z 15009KT 25/20 A30 RMK A01 T02450195  RH  074%=      5-min Rain = 0
KPD2 251738Z 16009KT 25/20 A30 RMK A01 T02450195  RH  073%=      5-min Rain = 0
KPD2 251739Z 17011KT 25/20 A30 RMK A01 T02450195  RH  073%=      5-min Rain = 0
KPD2 251740Z 17009KT 25/19 A30 RMK A01 T02450194  RH  073%=      5-min Rain = 0
KPD2 251741Z 17007KT 24/19 A30 RMK A01 T02440194  RH  074%=      5-min Rain = 0
KPD2 251742Z 16007KT 24/20 A30 RMK A01 T02440195  RH  074%=      5-min Rain = 0
KPD2 251743Z 16008G13KT 25/20 A30 RMK A01 T02450195  RH  074%=      5-min Rain = 0
KPD2 251744Z 17009G14KT 25/19 A30 RMK A01 T02450194  RH  073%=      5-min Rain = 0
KPD2 251745Z 16007KT 25/19 A30 RMK A01 T02450194  RH  073%=      5-min Rain = 0
KPD2 251746Z 14009KT 25/19 A30 RMK A01 T02450194  RH  073%=      5-min Rain = 0
KPD2 251747Z 15009KT 25/20 A2999 RMK A01 T02450195  RH  074%=      5-min Rain = 0
KPD2 251748Z 16007G12KT 25/19 A2999 RMK A01 T02450194  RH  073%=      5-min Rain = 0
KPD2 251749Z 16008KT 24/19 A2999 RMK A01 T02440194  RH  073%=      5-min Rain = 0
KPD2 251750Z 14009KT 24/20 A2999 RMK A01 T02440195  RH  074%=      5-min Rain = 0
KPD2 251751Z 15007KT 24/20 A2999 RMK A01 T02440195  RH  074%=      5-min Rain = 0
KPD2 251752Z 16008KT 24/20 A2999 RMK A01 T02440196  RH  074%=      5-min Rain = 0
KPD2 251753Z 16007KT 24/20 A2999 RMK A01 T02440195  RH  074%=      5-min Rain = 0
KPD2 251754Z 14008KT 24/20 A2999 RMK A01 T02440195  RH  074%=      5-min Rain = 0
KPD2 251755Z 14009KT 24/19 A2999 RMK A01 T02440194  RH  074%=      5-min Rain = 0
KPD2 251756Z 15008KT 24/19 A2999 RMK A01 T02440194  RH  074%=      5-min Rain = 0
KPD2 251757Z 17010G15KT 24/19 A2999 RMK A01 T02440194  RH  074%=      5-min Rain = 0
KPD2 251758Z 16008KT 24/19 A2999 RMK A01 T02440194  RH  074%=      5-min Rain = 0
KPD2 251759Z 15007KT 24/20 A2999 RMK A01 T02440195  RH  074%=      5-min Rain = 0
KPD2 251800Z 16006KT 25/20 A2999 RMK A01 T02460195  RH  073%=      5-min Rain = 0
KPD2 251801Z 14009G14KT 25/19 A2999 RMK A01 T02470194  RH  073%=      5-min Rain = 0
KPD2 251802Z 15010KT 25/20 A2999 RMK A01 T02480195  RH  072%=      5-min Rain = 0
KPD2 251803Z 12006KT 25/20 A2999 RMK A01 T02490195  RH  072%=      5-min Rain = 0
KPD2 251804Z 14008KT 25/20 A2999 RMK A01 T02500196  RH  072%=      5-min Rain = 0
KPD2 251805Z 15005KT 25/20 A2999 RMK A01 T02510195  RH  071%=      5-min Rain = 0
KPD2 251806Z 15007KT 25/20 A2999 RMK A01 T02510195  RH  071%=      5-min Rain = 0
KPD2 251807Z 14008KT 25/20 A2999 RMK A01 T02510195  RH  071%=      5-min Rain = 0
KPD2 251808Z 15011KT 25/19 A2999 RMK A01 T02500194  RH  071%=      5-min Rain = 0
KPD2 251809Z 14011KT 25/19 A2999 RMK A01 T02500194  RH  071%=      5-min Rain = 0
KPD2 251810Z 15009KT 25/19 A2999 RMK A01 T02510194  RH  071%=      5-min Rain = 0
KPD2 251811Z 15010KT 25/20 A2999 RMK A01 T02520195  RH  070%=      5-min Rain = 0
KPD2 251812Z 15011KT 25/19 A2999 RMK A01 T02520194  RH  070%=      5-min Rain = 0
KPD2 251813Z 16010KT 25/19 A2999 RMK A01 T02530194  RH  070%=      5-min Rain = 0
KPD2 251814Z 15013G20KT 25/19 A2999 RMK A01 T02530194  RH  070%=      5-min Rain = 0
KPD2 251815Z 15011KT 25/19 A2999 RMK A01 T02520193  RH  070%=      5-min Rain = 0
KPD2 251816Z 16011KT 25/19 A2999 RMK A01 T02510193  RH  070%=      5-min Rain = 0
KPD2 251817Z 16009KT 25/19 A2998 RMK A01 T02510193  RH  070%=      5-min Rain = 0
KPD2 251818Z 15009KT 25/19 A2998 RMK A01 T02510194  RH  070%=      5-min Rain = 0
KPD2 251819Z 16009G14KT 25/19 A2998 RMK A01 T02520194  RH  070%=      5-min Rain = 0
KPD2 251820Z 16007KT 25/19 A2998 RMK A01 T02530194  RH  070%=      5-min Rain = 0
KPD2 251821Z 17008KT 25/19 A2998 RMK A01 T02530194  RH  070%=      5-min Rain = 0
KPD2 251822Z 16009KT 25/20 A2998 RMK A01 T02530195  RH  070%=      5-min Rain = 0
KPD2 251823Z 14008KT 25/20 A2998 RMK A01 T02530195  RH  070%=      5-min Rain = 0
KPD2 251824Z 14006KT 25/19 A2998 RMK A01 T02530194  RH  070%=      5-min Rain = 0
KPD2 251825Z 14009KT 25/20 A2998 RMK A01 T02530195  RH  070%=      5-min Rain = 0
KPD2 251826Z 15007KT 25/20 A2998 RMK A01 T02530196  RH  070%=      5-min Rain = 0
KPD2 251827Z 15010KT 25/20 A2998 RMK A01 T02540195  RH  070%=      5-min Rain = 0
KPD2 251828Z 15010KT 26/19 A2998 RMK A01 T02550194  RH  069%=      5-min Rain = 0
KPD2 251829Z 15010KT 26/20 A2998 RMK A01 T02550195  RH  069%=      5-min Rain = 0
KPD2 251830Z 15010KT 26/20 A2998 RMK A01 T02560195  RH  069%=      5-min Rain = 0
KPD2 251831Z 16010KT 26/20 A2998 RMK A01 T02570195  RH  069%=      5-min Rain = 0
KPD2 251832Z 17008G13KT 26/20 A2997 RMK A01 T02570195  RH  069%=      5-min Rain = 0
KPD2 251833Z 16008KT 26/20 A2997 RMK A01 T02570196  RH  069%=      5-min Rain = 0
KPD2 251834Z 13012G17KT 26/20 A2997 RMK A01 T02580196  RH  069%=      5-min Rain = 0
KPD2 251835Z 14008KT 26/20 A2996 RMK A01 T02590197  RH  069%=      5-min Rain = 0
KPD2 251836Z 13010KT 26/20 A2996 RMK A01 T02590197  RH  068%=      5-min Rain = 0
KPD2 251837Z 14010KT 26/20 A2996 RMK A01 T02600196  RH  068%=      5-min Rain = 0
KPD2 251838Z 14011KT 26/20 A2996 RMK A01 T02590195  RH  068%=      5-min Rain = 0
KPD2 251839Z 14009KT 26/20 A2996 RMK A01 T02570196  RH  069%=      5-min Rain = 0
KPD2 251840Z 14011KT 26/20 A2995 RMK A01 T02570196  RH  069%=      5-min Rain = 0
KPD2 251841Z 13013KT 26/20 A2995 RMK A01 T02570195  RH  069%=      5-min Rain = 0
KPD2 251842Z 14012G17KT 26/20 A2995 RMK A01 T02570195  RH  069%=      5-min Rain = 0
KPD2 251843Z 14011KT 26/20 A2995 RMK A01 T02570195  RH  069%=      5-min Rain = 0
KPD2 251844Z 14012G18KT 26/20 A2995 RMK A01 T02560195  RH  069%=      5-min Rain = 0
KPD2 251845Z 14014KT 26/20 A2995 RMK A01 T02560195  RH  069%=      5-min Rain = 0
KPD2 251846Z 15011KT 26/19 A2995 RMK A01 T02550193  RH  069%=      5-min Rain = 0
KPD2 251847Z 15013KT 25/19 A2995 RMK A01 T02540193  RH  069%=      5-min Rain = 0
KPD2 251848Z 16011KT 25/19 A2995 RMK A01 T02530193  RH  069%=      5-min Rain = 0
KPD2 251849Z 15010KT 25/19 A2995 RMK A01 T02530193  RH  069%=      5-min Rain = 0
KPD2 251850Z 16011KT 25/19 A2995 RMK A01 T02520193  RH  070%=      5-min Rain = 0
KPD2 251851Z 16011KT 25/19 A2995 RMK A01 T02520193  RH  070%=      5-min Rain = 0
KPD2 251852Z 15007KT 25/19 A2995 RMK A01 T02510194  RH  070%=      5-min Rain = 0
KPD2 251853Z 17010KT 25/19 A2995 RMK A01 T02510194  RH  071%=      5-min Rain = 0
KPD2 251854Z 15009KT 25/19 A2995 RMK A01 T02520194  RH  070%=      5-min Rain = 0
KPD2 251855Z 15008KT 25/20 A2995 RMK A01 T02520195  RH  071%=      5-min Rain = 0
KPD2 251856Z 14013KT 25/19 A2995 RMK A01 T02510194  RH  070%=      5-min Rain = 0
KPD2 251857Z 15011KT 25/19 A2996 RMK A01 T02510193  RH  070%=      5-min Rain = 0
KPD2 251858Z 15012KT 25/19 A2996 RMK A01 T02500193  RH  070%=      5-min Rain = 0
KPD2 251859Z 17011KT 25/19 A2995 RMK A01 T02490193  RH  071%=      5-min Rain = 0
KPD2 251900Z 16008G13KT 25/19 A2995 RMK A01 T02480193  RH  071%=      5-min Rain = 0
KPD2 251901Z 15010G16KT 25/19 A2995 RMK A01 T02480193  RH  072%=      5-min Rain = 0
KPD2 251902Z 15006KT 25/19 A2995 RMK A01 T02480193  RH  072%=      5-min Rain = 0
KPD2 251903Z 15008G16KT 25/19 A2995 RMK A01 T02470194  RH  072%=      5-min Rain = 0
KPD2 251904Z 15009KT 25/19 A2996 RMK A01 T02470193  RH  072%=      5-min Rain = 0
KPD2 251905Z 14011G16KT 25/19 A2996 RMK A01 T02470194  RH  072%=      5-min Rain = 0
KPD2 251906Z 15011G16KT 25/19 A2996 RMK A01 T02470194  RH  072%=      5-min Rain = 0
KPD2 251907Z 15012KT 25/19 A2996 RMK A01 T02470194  RH  072%=      5-min Rain = 0
KPD2 251908Z 16011KT 25/19 A2996 RMK A01 T02460193  RH  072%=      5-min Rain = 0
KPD2 251909Z 15010G15KT 25/19 A2996 RMK A01 T02460192  RH  072%=      5-min Rain = 0
KPD2 251910Z 17008KT 25/19 A2996 RMK A01 T02460193  RH  072%=      5-min Rain = 0
KPD2 251911Z 17007KT 25/19 A2996 RMK A01 T02450193  RH  072%=      5-min Rain = 0
KPD2 251912Z 17012G18KT 25/19 A2996 RMK A01 T02450193  RH  072%=      5-min Rain = 0
KPD2 251913Z 14009KT 25/19 A2996 RMK A01 T02450192  RH  072%=      5-min Rain = 0
KPD2 251914Z 16012G17KT 24/19 A2996 RMK A01 T02440192  RH  072%=      5-min Rain = 0
KPD2 251915Z 17008KT 24/19 A2996 RMK A01 T02440191  RH  072%=      5-min Rain = 0
KPD2 251916Z 16009KT 24/19 A2996 RMK A01 T02440192  RH  073%=      5-min Rain = 0
KPD2 251917Z 16009G15KT 24/19 A2996 RMK A01 T02430192  RH  073%=      5-min Rain = 0
KPD2 251918Z 17009KT 24/19 A2997 RMK A01 T02430193  RH  074%=      5-min Rain = 0
KPD2 251919Z 18009KT 24/19 A2997 RMK A01 T02420193  RH  074%=      5-min Rain = 0
KPD2 251920Z 18007G12KT 24/19 A2997 RMK A01 T02420193  RH  074%=      5-min Rain = 0
KPD2 251921Z 17010KT 24/19 A2998 RMK A01 T02410194  RH  075%=      5-min Rain = 0
KPD2 251922Z 15009KT 24/19 A2998 RMK A01 T02410194  RH  075%=      5-min Rain = 0
KPD2 251923Z 14008KT 24/20 A2998 RMK A01 T02410195  RH  076%=      5-min Rain = 0
KPD2 251924Z 14009G14KT 24/20 A2998 RMK A01 T02400196  RH  076%=      5-min Rain = 0
KPD2 251925Z 14009KT 24/20 A2998 RMK A01 T02400196  RH  076%=      5-min Rain = 0
KPD2 251926Z 13013KT 24/20 A2998 RMK A01 T02390197  RH  077%=      5-min Rain = 0
KPD2 251927Z 14010G16KT 24/20 A2998 RMK A01 T02380196  RH  077%=      5-min Rain = 0
KPD2 251928Z 15011G16KT 24/20 A2998 RMK A01 T02370197  RH  078%=      5-min Rain = 0
KPD2 251929Z 16007KT 24/20 A2998 RMK A01 T02360196  RH  078%=      5-min Rain = 0
KPD2 251930Z 16010KT 24/20 A2997 RMK A01 T02350197  RH  079%=      5-min Rain = 0
KPD2 251931Z 19008KT 23/20 A2997 RMK A01 T02340197  RH  079%=      5-min Rain = 0
KPD2 251932Z 14008KT 23/20 A2997 RMK A01 T02330198  RH  080%=      5-min Rain = 0
KPD2 251933Z 16014KT 23/20 A2997 RMK A01 T02320197  RH  081%=      5-min Rain = 0
KPD2 251934Z 15011G18KT 23/20 A2997 RMK A01 T02320196  RH  080%=      5-min Rain = 0
KPD2 251935Z 14014G20KT 23/20 A2997 RMK A01 T02320197  RH  081%=      5-min Rain = 0
KPD2 251936Z 16013KT 23/20 A2997 RMK A01 T02310198  RH  082%=      5-min Rain = 0
KPD2 251937Z 16010KT 23/20 A2996 RMK A01 T02300198  RH  082%=      5-min Rain = 0
KPD2 251938Z 15010KT 23/20 A2996 RMK A01 T02290198  RH  083%=      5-min Rain = 0
KPD2 251939Z 17011KT 23/20 A2996 RMK A01 T02280198  RH  083%=      5-min Rain = 0
KPD2 251940Z 15011KT 23/20 A2996 RMK A01 T02280199  RH  084%=      5-min Rain = 0
KPD2 251941Z 15007KT 23/20 A2996 RMK A01 T02270198  RH  084%=      5-min Rain = 0
KPD2 251942Z 15008KT 23/20 A2995 RMK A01 T02270200  RH  085%=      5-min Rain = 0
KPD2 251943Z 16010KT 23/20 A2995 RMK A01 T02260200  RH  085%=      5-min Rain = 0
KPD2 251944Z 15009KT 23/20 A2995 RMK A01 T02250200  RH  086%=      5-min Rain = 0
KPD2 251945Z 13009KT 22/20 A2995 RMK A01 T02240201  RH  087%=      5-min Rain = 0
KPD2 251946Z 13012KT 22/20 A2995 RMK A01 T02240202  RH  087%=      5-min Rain = 0.01
KPD2 251947Z 13011KT 22/20 A2994 RMK A01 T02230202  RH  088%=      5-min Rain = 0
KPD2 251948Z 13011KT 22/20 A2994 RMK A01 T02220203  RH  089%=      5-min Rain = 0
KPD2 251949Z 13012KT 22/20 A2994 RMK A01 T02210203  RH  089%=      5-min Rain = 0
KPD2 251950Z 13013KT 22/20 A2993 RMK A01 T02200202  RH  090%=      5-min Rain = 0
KPD2 251951Z 14012KT 22/20 A2993 RMK A01 T02200201  RH  089%=      5-min Rain = 0
KPD2 251952Z 14012KT 22/20 A2992 RMK A01 T02190201  RH  089%=      5-min Rain = 0
KPD2 251953Z 14013KT 22/20 A2992 RMK A01 T02190201  RH  090%=      5-min Rain = 0
KPD2 251954Z 14011KT 22/20 A2992 RMK A01 T02190201  RH  090%=      5-min Rain = 0
KPD2 251955Z 14009KT 22/20 A2993 RMK A01 T02190201  RH  090%=      5-min Rain = 0
KPD2 251956Z 14009KT 22/20 A2993 RMK A01 T02180201  RH  090%=      5-min Rain = 0
KPD2 251957Z 15010KT 22/20 A2994 RMK A01 T02180202  RH  090%=      5-min Rain = 0
KPD2 251958Z 15008KT 22/20 A2994 RMK A01 T02180202  RH  090%=      5-min Rain = 0
KPD2 251959Z 15008KT 22/20 A2994 RMK A01 T02180203  RH  091%=      5-min Rain = 0.01
KPD2 252000Z 15010KT 22/20 A2994 RMK A01 T02180202  RH  091%=      5-min Rain = 0
KPD2 252001Z 15008KT 22/20 A2994 RMK A01 T02170202  RH  091%=      5-min Rain = 0
KPD2 252002Z 15008KT 22/20 A2994 RMK A01 T02180202  RH  091%=      5-min Rain = 0
KPD2 252003Z 16007KT 22/20 A2994 RMK A01 T02170202  RH  091%=      5-min Rain = 0
KPD2 252004Z 15006KT 22/20 A2995 RMK A01 T02170202  RH  091%=      5-min Rain = 0
KPD2 252005Z 15006KT 22/20 A2995 RMK A01 T02170202  RH  091%=      5-min Rain = 0
KPD2 252006Z 15006KT 22/20 A2995 RMK A01 T02170202  RH  091%=      5-min Rain = 0
KPD2 252007Z 16006KT 22/20 A2994 RMK A01 T02170202  RH  091%=      5-min Rain = 0
KPD2 252008Z 15006KT 22/20 A2994 RMK A01 T02170202  RH  091%=      5-min Rain = 0
KPD2 252009Z 13005KT 22/20 A2994 RMK A01 T02180203  RH  091%=      5-min Rain = 0
KPD2 252010Z 15003KT 22/20 A2994 RMK A01 T02170203  RH  091%=      5-min Rain = 0
KPD2 252011Z 14002KT 22/20 A2994 RMK A01 T02180204  RH  092%=      5-min Rain = 0
KPD2 252012Z 12001KT 22/20 A2994 RMK A01 T02180204  RH  092%=      5-min Rain = 0
KPD2 252013Z 13002KT 22/20 A2995 RMK A01 T02170204  RH  092%=      5-min Rain = 0
KPD2 252014Z 16002KT 22/21 A2995 RMK A01 T02180205  RH  092%=      5-min Rain = 0
KPD2 252015Z 18002KT 22/21 A2996 RMK A01 T02170205  RH  092%=      5-min Rain = 0
KPD2 252016Z 20004KT 22/21 A2996 RMK A01 T02170205  RH  093%=      5-min Rain = 0.01
KPD2 252017Z 21004KT 22/21 A2997 RMK A01 T02170206  RH  093%=      5-min Rain = 0
KPD2 252018Z 21004KT 22/21 A2997 RMK A01 T02170206  RH  093%=      5-min Rain = 0
KPD2 252019Z 21005KT 22/21 A2997 RMK A01 T02160205  RH  093%=      5-min Rain = 0.01
KPD2 252020Z 22005KT 22/21 A2998 RMK A01 T02160205  RH  093%=      5-min Rain = 0.03
KPD2 252021Z 23007KT 22/21 A2998 RMK A01 T02160205  RH  094%=      5-min Rain = 0.04
KPD2 252022Z 27004KT 22/20 A2998 RMK A01 T02150204  RH  094%=      5-min Rain = 0
KPD2 252023Z 26004KT 21/20 A2998 RMK A01 T02140203  RH  094%=      5-min Rain = 0.01
KPD2 252024Z 26002KT 21/20 A2998 RMK A01 T02140203  RH  094%=      5-min Rain = 0.02
KPD2 252025Z 29003KT 21/20 A2998 RMK A01 T02130203  RH  094%=      5-min Rain = 0.01
KPD2 252026Z 10005KT 21/20 A2998 RMK A01 T02130203  RH  094%=      5-min Rain = 0.01
KPD2 252027Z 08005KT 21/20 A2997 RMK A01 T02120203  RH  094%=      5-min Rain = 0
KPD2 252028Z 12005KT 21/20 A2996 RMK A01 T02130203  RH  094%=      5-min Rain = 0.01
KPD2 252029Z 11007G12KT 21/20 A2996 RMK A01 T02120203  RH  095%=      5-min Rain = 0.02
KPD2 252030Z 13007KT 21/20 A2995 RMK A01 T02120204  RH  095%=      5-min Rain = 0.02
KPD2 252031Z 09010G15KT 21/20 A2994 RMK A01 T02120204  RH  095%=      5-min Rain = 0.01
KPD2 252032Z 13011KT 21/20 A2994 RMK A01 T02120203  RH  095%=      5-min Rain = 0.01
KPD2 252033Z 13009KT 21/20 A2994 RMK A01 T02120204  RH  095%=      5-min Rain = 0
KPD2 252034Z 11012G19KT 21/20 A2994 RMK A01 T02120204  RH  095%=      5-min Rain = 0
KPD2 252035Z 11011KT 21/20 A2993 RMK A01 T02110203  RH  095%=      5-min Rain = 0
KPD2 252036Z 13008G14KT 21/20 A2993 RMK A01 T02120203  RH  095%=      5-min Rain = 0
KPD2 252037Z 13008KT 21/20 A2993 RMK A01 T02120203  RH  095%=      5-min Rain = 0
KPD2 252038Z 13008KT 21/20 A2993 RMK A01 T02120203  RH  095%=      5-min Rain = 0
KPD2 252039Z 13006KT 21/20 A2994 RMK A01 T02120204  RH  095%=      5-min Rain = 0
KPD2 252040Z 13006KT 21/20 A2994 RMK A01 T02120204  RH  095%=      5-min Rain = 0
KPD2 252041Z 13008KT 21/20 A2994 RMK A01 T02120204  RH  095%=      5-min Rain = 0
KPD2 252042Z 13012KT 21/20 A2994 RMK A01 T02120204  RH  095%=      5-min Rain = 0
KPD2 252043Z 14012KT 21/20 A2995 RMK A01 T02120204  RH  095%=      5-min Rain = 0
KPD2 252044Z 14011KT 21/20 A2995 RMK A01 T02120204  RH  095%=      5-min Rain = 0
KPD2 252045Z 14010KT 21/20 A2995 RMK A01 T02120204  RH  095%=      5-min Rain = 0
KPD2 252046Z 14010KT 21/20 A2995 RMK A01 T02120204  RH  095%=      5-min Rain = 0
KPD2 252047Z 13011KT 21/20 A2994 RMK A01 T02120204  RH  095%=      5-min Rain = 0
KPD2 252048Z 12011KT 21/20 A2994 RMK A01 T02120204  RH  095%=      5-min Rain = 0
KPD2 252049Z 13012G17KT 21/20 A2994 RMK A01 T02120204  RH  095%=      5-min Rain = 0
KPD2 252050Z 13012KT 21/20 A2994 RMK A01 T02120204  RH  095%=      5-min Rain = 0
KPD2 252051Z 13011KT 21/20 A2994 RMK A01 T02120204  RH  095%=      5-min Rain = 0
KPD2 252052Z 13011KT 21/20 A2994 RMK A01 T02120203  RH  095%=      5-min Rain = 0
KPD2 252053Z 13012KT 21/20 A2994 RMK A01 T02120203  RH  095%=      5-min Rain = 0
KPD2 252054Z 13011KT 21/20 A2994 RMK A01 T02120203  RH  095%=      5-min Rain = 0
KPD2 252055Z 13010KT 21/20 A2994 RMK A01 T02120203  RH  095%=      5-min Rain = 0
KPD2 252056Z 13009KT 21/20 A2994 RMK A01 T02120203  RH  094%=      5-min Rain = 0
KPD2 252057Z 12008KT 21/20 A2994 RMK A01 T02130204  RH  095%=      5-min Rain = 0
KPD2 252058Z 14007KT 21/20 A2994 RMK A01 T02130204  RH  095%=      5-min Rain = 0
KPD2 252059Z 14012G18KT 21/20 A2994 RMK A01 T02130204  RH  094%=      5-min Rain = 0
KPD2 252100Z 14012G20KT 21/20 A2994 RMK A01 T02130203  RH  094%=      5-min Rain = 0
KPD2 252101Z 13008G13KT 21/20 A2995 RMK A01 T02130202  RH  094%=      5-min Rain = 0
KPD2 252102Z 15011KT 21/20 A2995 RMK A01 T02140203  RH  093%=      5-min Rain = 0
KPD2 252103Z 16009KT 21/20 A2995 RMK A01 T02140202  RH  093%=      5-min Rain = 0
KPD2 252104Z 16008G13KT 22/20 A2995 RMK A01 T02150202  RH  092%=      5-min Rain = 0
KPD2 252105Z 14005KT 22/20 A2994 RMK A01 T02160203  RH  093%=      5-min Rain = 0
KPD2 252106Z 15005KT 22/20 A2994 RMK A01 T02160203  RH  093%=      5-min Rain = 0
KPD2 252107Z 14007KT 22/20 A2995 RMK A01 T02160203  RH  093%=      5-min Rain = 0.01
KPD2 252108Z 14009KT 22/20 A2995 RMK A01 T02160203  RH  093%=      5-min Rain = 0
KPD2 252109Z 13008KT 22/20 A2994 RMK A01 T02150201  RH  092%=      5-min Rain = 0
KPD2 252110Z 13011KT 22/20 A2994 RMK A01 T02150201  RH  092%=      5-min Rain = 0
KPD2 252111Z 13008KT 22/20 A2994 RMK A01 T02150201  RH  092%=      5-min Rain = 0
KPD2 252112Z 13010KT 21/20 A2994 RMK A01 T02140200  RH  091%=      5-min Rain = 0
KPD2 252113Z 13008KT 21/20 A2994 RMK A01 T02140199  RH  091%=      5-min Rain = 0
KPD2 252114Z 13007KT 21/20 A2994 RMK A01 T02140198  RH  091%=      5-min Rain = 0
KPD2 252115Z 14009KT 21/20 A2994 RMK A01 T02140197  RH  090%=      5-min Rain = 0
KPD2 252116Z 14008KT 21/19 A2994 RMK A01 T02130190  RH  087%=      5-min Rain = 0
KPD2 252117Z 14005G10KT 21/19 A2994 RMK A01 T02120187  RH  086%=      5-min Rain = 0
KPD2 252118Z 15008KT 21/19 A2994 RMK A01 T02120187  RH  086%=      5-min Rain = 0
KPD2 252119Z 15010KT 21/19 A2994 RMK A01 T02120188  RH  086%=      5-min Rain = 0
KPD2 252120Z 15009KT 21/19 A2994 RMK A01 T02120188  RH  086%=      5-min Rain = 0
KPD2 252121Z 16008KT 21/19 A2994 RMK A01 T02110188  RH  087%=      5-min Rain = 0
KPD2 252122Z 16008KT 21/19 A2994 RMK A01 T02100186  RH  086%=      5-min Rain = 0
KPD2 252123Z 16006KT 21/19 A2994 RMK A01 T02100188  RH  087%=      5-min Rain = 0
KPD2 252124Z 15007KT 21/19 A2994 RMK A01 T02090187  RH  087%=      5-min Rain = 0
KPD2 252125Z 16008KT 21/19 A2993 RMK A01 T02080186  RH  087%=      5-min Rain = 0
KPD2 252126Z 15008KT 21/19 A2993 RMK A01 T02070185  RH  087%=      5-min Rain = 0
KPD2 252127Z 15009KT 21/19 A2993 RMK A01 T02060185  RH  088%=      5-min Rain = 0
KPD2 252128Z 16009KT 21/19 A2993 RMK A01 T02050185  RH  088%=      5-min Rain = 0
KPD2 252129Z 14007KT 21/19 A2993 RMK A01 T02050185  RH  088%=      5-min Rain = 0
KPD2 252130Z 14008KT 21/19 A2992 RMK A01 T02050186  RH  089%=      5-min Rain = 0
KPD2 252131Z 14006KT 20/19 A2992 RMK A01 T02040185  RH  089%=      5-min Rain = 0
KPD2 252132Z 13004KT 20/19 A2992 RMK A01 T02040187  RH  090%=      5-min Rain = 0
KPD2 252133Z 12004KT 20/19 A2992 RMK A01 T02040188  RH  090%=      5-min Rain = 0
KPD2 252134Z 13005KT 20/19 A2992 RMK A01 T02040188  RH  090%=      5-min Rain = 0
KPD2 252135Z 16004KT 20/19 A2993 RMK A01 T02040187  RH  090%=      5-min Rain = 0
KPD2 252136Z 18004KT 20/19 A2993 RMK A01 T02030187  RH  091%=      5-min Rain = 0
KPD2 252137Z 21003KT 20/19 A2993 RMK A01 T02030188  RH  091%=      5-min Rain = 0
KPD2 252138Z 23003KT 20/19 A2994 RMK A01 T02020188  RH  092%=      5-min Rain = 0
KPD2 252139Z 24003KT 20/19 A2995 RMK A01 T02020189  RH  092%=      5-min Rain = 0
KPD2 252140Z 24004KT 20/19 A2995 RMK A01 T02010188  RH  092%=      5-min Rain = 0
KPD2 252141Z 27004KT 20/18 A2996 RMK A01 T02000184  RH  091%=      5-min Rain = 0
KPD2 252142Z 27004KT 20/18 A2996 RMK A01 T01990183  RH  090%=      5-min Rain = 0
KPD2 252143Z 29003KT 20/18 A2996 RMK A01 T01990183  RH  091%=      5-min Rain = 0
KPD2 252144Z 30006KT 20/18 A2996 RMK A01 T01990183  RH  091%=      5-min Rain = 0
KPD2 252145Z 32006KT 20/18 A2996 RMK A01 T01980182  RH  091%=      5-min Rain = 0.01
KPD2 252146Z 32007KT 20/18 A2995 RMK A01 T01970182  RH  091%=      5-min Rain = 0
KPD2 252147Z 34008KT 20/18 A2995 RMK A01 T01960182  RH  092%=      5-min Rain = 0
KPD2 252148Z 34008KT 20/18 A2995 RMK A01 T01950181  RH  092%=      5-min Rain = 0
KPD2 252149Z 34009KT 20/18 A2995 RMK A01 T01950182  RH  092%=      5-min Rain = 0
KPD2 252150Z 35009KT 20/18 A2995 RMK A01 T01950182  RH  093%=      5-min Rain = 0
KPD2 252151Z 35009KT 19/18 A2995 RMK A01 T01940182  RH  093%=      5-min Rain = 0
KPD2 252152Z 35007KT 19/18 A2995 RMK A01 T01940181  RH  092%=      5-min Rain = 0
KPD2 252153Z 33006KT 19/18 A2995 RMK A01 T01930179  RH  091%=      5-min Rain = 0
KPD2 252154Z 33005KT 19/18 A2995 RMK A01 T01930179  RH  091%=      5-min Rain = 0
KPD2 252155Z 31004KT 19/18 A2994 RMK A01 T01940180  RH  092%=      5-min Rain = 0
KPD2 252156Z 31004KT 19/18 A2994 RMK A01 T01940181  RH  092%=      5-min Rain = 0
KPD2 252157Z 31003KT 19/18 A2994 RMK A01 T01940181  RH  092%=      5-min Rain = 0
KPD2 252158Z 31002KT 19/18 A2994 RMK A01 T01940181  RH  092%=      5-min Rain = 0
KPD2 252159Z 32002KT 19/18 A2994 RMK A01 T01940182  RH  092%=      5-min Rain = 0
KPD2 252200Z 27001KT 19/18 A2994 RMK A01 T01940180  RH  092%=      5-min Rain = 0
KPD2 252201Z 02003KT 19/18 A2994 RMK A01 T01940179  RH  091%=      5-min Rain = 0
KPD2 252202Z 01004KT 19/18 A2994 RMK A01 T01940176  RH  090%=      5-min Rain = 0
KPD2 252203Z 03003KT 19/17 A2995 RMK A01 T01940173  RH  088%=      5-min Rain = 0
KPD2 252204Z 00002KT 20/17 A2995 RMK A01 T01950173  RH  087%=      5-min Rain = 0
KPD2 252205Z 30002KT 20/17 A2995 RMK A01 T01950173  RH  087%=      5-min Rain = 0
KPD2 252206Z 28004KT 20/18 A2995 RMK A01 T01960177  RH  088%=      5-min Rain = 0
KPD2 252207Z 28004KT 20/18 A2995 RMK A01 T01960178  RH  089%=      5-min Rain = 0
KPD2 252208Z 27004KT 20/18 A2995 RMK A01 T01950177  RH  089%=      5-min Rain = 0
KPD2 252209Z 29004KT 19/18 A2995 RMK A01 T01940177  RH  090%=      5-min Rain = 0
KPD2 252210Z 27003KT 19/18 A2995 RMK A01 T01940177  RH  090%=      5-min Rain = 0
KPD2 252211Z 26001KT 19/18 A2995 RMK A01 T01940178  RH  091%=      5-min Rain = 0
KPD2 252212Z 26001KT 19/18 A2995 RMK A01 T01940179  RH  091%=      5-min Rain = 0
KPD2 252213Z 27001KT 19/18 A2994 RMK A01 T01940178  RH  090%=      5-min Rain = 0
KPD2 252214Z 29001KT 19/18 A2994 RMK A01 T01930177  RH  090%=      5-min Rain = 0
KPD2 252215Z 25001KT 19/18 A2994 RMK A01 T01930177  RH  091%=      5-min Rain = 0
KPD2 252216Z 23001KT 19/18 A2994 RMK A01 T01930178  RH  091%=      5-min Rain = 0
KPD2 252217Z 23001KT 19/18 A2994 RMK A01 T01930177  RH  091%=      5-min Rain = 0
KPD2 252218Z 20001KT 19/18 A2994 RMK A01 T01930177  RH  090%=      5-min Rain = 0
KPD2 252219Z 19001KT 19/18 A2995 RMK A01 T01930177  RH  091%=      5-min Rain = 0
KPD2 252220Z 19000KT 19/18 A2995 RMK A01 T01930177  RH  091%=      5-min Rain = 0
KPD2 252221Z 18000KT 19/18 A2995 RMK A01 T01930177  RH  091%=      5-min Rain = 0
KPD2 252222Z 04001KT 19/18 A2994 RMK A01 T01930179  RH  091%=      5-min Rain = 0
KPD2 252223Z 02002KT 19/18 A2994 RMK A01 T01930180  RH  092%=      5-min Rain = 0
KPD2 252224Z 04003KT 19/18 A2994 RMK A01 T01930180  RH  092%=      5-min Rain = 0
KPD2 252225Z 04003KT 19/18 A2994 RMK A01 T01930180  RH  092%=      5-min Rain = 0
KPD2 252226Z 05003KT 19/18 A2994 RMK A01 T01920179  RH  092%=      5-min Rain = 0
KPD2 252227Z 08002KT 19/18 A2994 RMK A01 T01920178  RH  091%=      5-min Rain = 0
KPD2 252228Z 14002KT 19/18 A2994 RMK A01 T01920178  RH  092%=      5-min Rain = 0
KPD2 252229Z 16003KT 19/18 A2994 RMK A01 T01920177  RH  091%=      5-min Rain = 0
KPD2 252230Z 16003KT 19/18 A2994 RMK A01 T01920177  RH  091%=      5-min Rain = 0
KPD2 252231Z 17002KT 19/18 A2994 RMK A01 T01930177  RH  090%=      5-min Rain = 0
KPD2 252232Z 18002KT 19/18 A2993 RMK A01 T01930177  RH  090%=      5-min Rain = 0
KPD2 252233Z 20002KT 19/18 A2993 RMK A01 T01930179  RH  091%=      5-min Rain = 0
KPD2 252234Z 21002KT 19/18 A2994 RMK A01 T01940179  RH  091%=      5-min Rain = 0
KPD2 252235Z 24002KT 19/18 A2994 RMK A01 T01930179  RH  091%=      5-min Rain = 0
KPD2 252236Z 26003KT 19/18 A2994 RMK A01 T01940180  RH  092%=      5-min Rain = 0
KPD2 252237Z 28003KT 19/18 A2994 RMK A01 T01930180  RH  092%=      5-min Rain = 0
KPD2 252238Z 30003KT 19/18 A2994 RMK A01 T01930181  RH  093%=      5-min Rain = 0
KPD2 252239Z 31005KT 19/18 A2994 RMK A01 T01930182  RH  093%=      5-min Rain = 0
KPD2 252240Z 32006KT 19/18 A2994 RMK A01 T01940184  RH  094%=      5-min Rain = 0
KPD2 252241Z 31006KT 19/18 A2993 RMK A01 T01940184  RH  094%=      5-min Rain = 0
KPD2 252242Z 32006KT 19/18 A2994 RMK A01 T01940184  RH  094%=      5-min Rain = 0
KPD2 252243Z 32005KT 19/18 A2994 RMK A01 T01930182  RH  094%=      5-min Rain = 0
KPD2 252244Z 32005KT 19/18 A2994 RMK A01 T01930182  RH  093%=      5-min Rain = 0
KPD2 252245Z 35007KT 19/18 A2994 RMK A01 T01930180  RH  093%=      5-min Rain = 0
KPD2 252246Z 01004KT 19/18 A2995 RMK A01 T01920179  RH  092%=      5-min Rain = 0
KPD2 252247Z 03004KT 19/18 A2995 RMK A01 T01930178  RH  091%=      5-min Rain = 0
KPD2 252248Z 01005KT 19/18 A2995 RMK A01 T01920176  RH  090%=      5-min Rain = 0
KPD2 252249Z 03007KT 19/17 A2995 RMK A01 T01920172  RH  088%=      5-min Rain = 0
KPD2 252250Z 03007KT 19/17 A2995 RMK A01 T01920169  RH  087%=      5-min Rain = 0
KPD2 252251Z 03006KT 19/17 A2996 RMK A01 T01920168  RH  086%=      5-min Rain = 0
KPD2 252252Z 02004KT 19/17 A2996 RMK A01 T01930167  RH  085%=      5-min Rain = 0
KPD2 252253Z 07001KT 19/17 A2997 RMK A01 T01940169  RH  085%=      5-min Rain = 0
KPD2 252254Z 11001KT 19/17 A2997 RMK A01 T01940166  RH  084%=      5-min Rain = 0
KPD2 252255Z 16001KT 20/16 A2996 RMK A01 T01950163  RH  082%=      5-min Rain = 0
KPD2 252256Z 15003KT 20/17 A2996 RMK A01 T01960170  RH  085%=      5-min Rain = 0
KPD2 252257Z 09001KT 20/17 A2996 RMK A01 T01970172  RH  085%=      5-min Rain = 0
KPD2 252258Z 07002KT 20/17 A2995 RMK A01 T01970169  RH  084%=      5-min Rain = 0
KPD2 252259Z 06001KT 20/16 A2995 RMK A01 T01970163  RH  081%=      5-min Rain = 0
KPD2 252300Z 07001KT 20/16 A2995 RMK A01 T01970164  RH  081%=      5-min Rain = 0
KPD2 252301Z 17003KT 20/17 A2995 RMK A01 T01980167  RH  083%=      5-min Rain = 0
KPD2 252302Z 17004KT 20/17 A2995 RMK A01 T01980170  RH  084%=      5-min Rain = 0
KPD2 252303Z 16004KT 20/17 A2995 RMK A01 T01980174  RH  086%=      5-min Rain = 0
KPD2 252304Z 15003KT 20/17 A2995 RMK A01 T01980174  RH  086%=      5-min Rain = 0
KPD2 252305Z 14003KT 20/17 A2995 RMK A01 T01970169  RH  084%=      5-min Rain = 0
KPD2 252306Z 13003KT 20/17 A2994 RMK A01 T01970172  RH  085%=      5-min Rain = 0
KPD2 252307Z 13003KT 20/17 A2993 RMK A01 T01970172  RH  085%=      5-min Rain = 0
KPD2 252308Z 14005KT 20/17 A2993 RMK A01 T01970171  RH  085%=      5-min Rain = 0
KPD2 252309Z 14006KT 20/17 A2992 RMK A01 T01970172  RH  085%=      5-min Rain = 0
KPD2 252310Z 12006KT 20/17 A2991 RMK A01 T01970174  RH  087%=      5-min Rain = 0
KPD2 252311Z 11005KT 20/17 A2991 RMK A01 T01960172  RH  086%=      5-min Rain = 0
KPD2 252312Z 14006KT 20/17 A2991 RMK A01 T01960172  RH  086%=      5-min Rain = 0
KPD2 252313Z 15008KT 20/17 A2992 RMK A01 T01950172  RH  086%=      5-min Rain = 0
KPD2 252314Z 15006KT 20/17 A2992 RMK A01 T01950172  RH  086%=      5-min Rain = 0
KPD2 252315Z 14005KT 20/17 A2992 RMK A01 T01950173  RH  087%=      5-min Rain = 0
KPD2 252316Z 16003KT 20/17 A2992 RMK A01 T01950171  RH  086%=      5-min Rain = 0
KPD2 252317Z 13002KT 20/17 A2993 RMK A01 T01950170  RH  086%=      5-min Rain = 0
KPD2 252318Z 15001KT 20/17 A2993 RMK A01 T01950170  RH  086%=      5-min Rain = 0
KPD2 252319Z 31000KT 20/17 A2993 RMK A01 T01950170  RH  086%=      5-min Rain = 0
KPD2 252320Z 27002KT 20/17 A2994 RMK A01 T01950173  RH  087%=      5-min Rain = 0
KPD2 252321Z 28003KT 20/17 A2994 RMK A01 T01950174  RH  088%=      5-min Rain = 0
KPD2 252322Z 28004KT 19/17 A2994 RMK A01 T01930174  RH  088%=      5-min Rain = 0
KPD2 252323Z 29005KT 19/18 A2994 RMK A01 T01930175  RH  089%=      5-min Rain = 0
KPD2 252324Z 29004KT 19/17 A2995 RMK A01 T01930174  RH  089%=      5-min Rain = 0
KPD2 252325Z 31003KT 19/17 A2995 RMK A01 T01920174  RH  089%=      5-min Rain = 0
KPD2 252326Z 33002KT 19/18 A2995 RMK A01 T01920175  RH  089%=      5-min Rain = 0
KPD2 252327Z 35002KT 19/18 A2995 RMK A01 T01920175  RH  090%=      5-min Rain = 0
KPD2 252328Z 03001KT 19/18 A2995 RMK A01 T01920175  RH  090%=      5-min Rain = 0
KPD2 252329Z 06001KT 19/18 A2995 RMK A01 T01910175  RH  090%=      5-min Rain = 0
KPD2 252330Z 09001KT 19/18 A2995 RMK A01 T01910175  RH  090%=      5-min Rain = 0
KPD2 252331Z 13001KT 19/18 A2995 RMK A01 T01910175  RH  091%=      5-min Rain = 0
KPD2 252332Z 12001KT 19/17 A2994 RMK A01 T01910174  RH  090%=      5-min Rain = 0
KPD2 252333Z 12001KT 19/17 A2994 RMK A01 T01910174  RH  090%=      5-min Rain = 0
KPD2 252334Z 11001KT 19/18 A2994 RMK A01 T01910175  RH  090%=      5-min Rain = 0
KPD2 252335Z 12001KT 19/18 A2994 RMK A01 T01910175  RH  090%=      5-min Rain = 0
KPD2 252336Z 12001KT 19/18 A2994 RMK A01 T01910175  RH  090%=      5-min Rain = 0
KPD2 252337Z 13002KT 19/18 A2994 RMK A01 T01910176  RH  091%=      5-min Rain = 0
KPD2 252338Z 12003KT 19/18 A2994 RMK A01 T01910176  RH  091%=      5-min Rain = 0
KPD2 252339Z 12003KT 19/18 A2994 RMK A01 T01920177  RH  091%=      5-min Rain = 0
KPD2 252340Z 12003KT 19/18 A2994 RMK A01 T01920178  RH  091%=      5-min Rain = 0
KPD2 252341Z 13002KT 19/18 A2994 RMK A01 T01920177  RH  091%=      5-min Rain = 0
KPD2 252342Z 11003KT 19/18 A2994 RMK A01 T01920177  RH  091%=      5-min Rain = 0
KPD2 252343Z 10003KT 19/18 A2993 RMK A01 T01920176  RH  091%=      5-min Rain = 0
KPD2 252344Z 14001KT 19/18 A2993 RMK A01 T01910175  RH  090%=      5-min Rain = 0
KPD2 252345Z 15002KT 19/18 A2993 RMK A01 T01910175  RH  091%=      5-min Rain = 0
KPD2 252346Z 13003KT 19/18 A2993 RMK A01 T01910176  RH  091%=      5-min Rain = 0
KPD2 252347Z 13004KT 19/18 A2993 RMK A01 T01910175  RH  091%=      5-min Rain = 0
KPD2 252348Z 13004KT 19/18 A2994 RMK A01 T01910175  RH  091%=      5-min Rain = 0
KPD2 252349Z 15005KT 19/17 A2994 RMK A01 T01910173  RH  089%=      5-min Rain = 0
KPD2 252350Z 15007KT 19/17 A2994 RMK A01 T01910172  RH  089%=      5-min Rain = 0
KPD2 252351Z 14007KT 19/17 A2994 RMK A01 T01930171  RH  087%=      5-min Rain = 0
KPD2 252352Z 15007KT 20/17 A2994 RMK A01 T01960171  RH  086%=      5-min Rain = 0
KPD2 252353Z 14008KT 20/17 A2994 RMK A01 T01970172  RH  085%=      5-min Rain = 0
KPD2 252354Z 14007KT 20/17 A2994 RMK A01 T01980173  RH  085%=      5-min Rain = 0
KPD2 252355Z 14008KT 20/17 A2994 RMK A01 T02000173  RH  085%=      5-min Rain = 0
KPD2 252356Z 13008KT 20/17 A2994 RMK A01 T02010174  RH  084%=      5-min Rain = 0
KPD2 252357Z 14009KT 20/17 A2994 RMK A01 T02010173  RH  084%=      5-min Rain = 0
KPD2 252358Z 13009KT 20/17 A2994 RMK A01 T02020173  RH  084%=      5-min Rain = 0
KPD2 252359Z 13008KT 20/17 A2994 RMK A01 T02020174  RH  084%=      5-min Rain = 0
KPD2 260000Z 13007KT 20/17 A2994 RMK A01 T02020174  RH  084%=      5-min Rain = 0
KPD2 260001Z 13008KT 20/18 A2993 RMK A01 T02020175  RH  084%=      5-min Rain = 0
KPD2 260002Z 13006KT 20/17 A2993 RMK A01 T02020174  RH  084%=      5-min Rain = 0
KPD2 260003Z 13005KT 20/18 A2993 RMK A01 T02010175  RH  085%=      5-min Rain = 0
KPD2 260004Z 13006KT 20/17 A2993 RMK A01 T02000174  RH  085%=      5-min Rain = 0
KPD2 260005Z 13006KT 20/17 A2993 RMK A01 T02000174  RH  085%=      5-min Rain = 0
KPD2 260006Z 14005KT 20/17 A2993 RMK A01 T01990173  RH  085%=      5-min Rain = 0
KPD2 260007Z 14005KT 20/17 A2993 RMK A01 T01990172  RH  085%=      5-min Rain = 0
KPD2 260008Z 13004KT 20/17 A2993 RMK A01 T01990172  RH  085%=      5-min Rain = 0
KPD2 260009Z 12004KT 20/17 A2993 RMK A01 T01990174  RH  085%=      5-min Rain = 0
KPD2 260010Z 13003KT 20/17 A2993 RMK A01 T01980174  RH  086%=      5-min Rain = 0
KPD2 260011Z 13004KT 20/17 A2993 RMK A01 T01980174  RH  086%=      5-min Rain = 0
KPD2 260012Z 14004KT 20/17 A2993 RMK A01 T01980174  RH  086%=      5-min Rain = 0
KPD2 260013Z 14004KT 20/17 A2994 RMK A01 T01980173  RH  085%=      5-min Rain = 0
KPD2 260014Z 15003KT 20/17 A2994 RMK A01 T01980173  RH  086%=      5-min Rain = 0
KPD2 260015Z 16004KT 20/17 A2994 RMK A01 T01980173  RH  086%=      5-min Rain = 0
KPD2 260016Z 16004KT 20/17 A2994 RMK A01 T01980172  RH  085%=      5-min Rain = 0
KPD2 260017Z 16004KT 20/17 A2994 RMK A01 T01980173  RH  086%=      5-min Rain = 0
KPD2 260018Z 17005KT 20/17 A2993 RMK A01 T01980172  RH  085%=      5-min Rain = 0
KPD2 260019Z 17005KT 20/17 A2993 RMK A01 T01970170  RH  084%=      5-min Rain = 0
KPD2 260020Z 16005KT 20/17 A2993 RMK A01 T01980169  RH  083%=      5-min Rain = 0
KPD2 260021Z 16008KT 20/16 A2993 RMK A01 T01990164  RH  080%=      5-min Rain = 0
KPD2 260022Z 17008G13KT 20/16 A2994 RMK A01 T02020162  RH  078%=      5-min Rain = 0
KPD2 260023Z 17006G11KT 20/17 A2994 RMK A01 T02040165  RH  078%=      5-min Rain = 0
KPD2 260024Z 17009KT 21/16 A2994 RMK A01 T02050163  RH  077%=      5-min Rain = 0
KPD2 260025Z 16009KT 21/16 A2994 RMK A01 T02050161  RH  076%=      5-min Rain = 0
KPD2 260026Z 15007KT 21/16 A2994 RMK A01 T02060162  RH  076%=      5-min Rain = 0
KPD2 260027Z 15007KT 21/16 A2993 RMK A01 T02060163  RH  076%=      5-min Rain = 0
KPD2 260028Z 15008KT 21/16 A2993 RMK A01 T02060162  RH  076%=      5-min Rain = 0
KPD2 260029Z 14009KT 21/16 A2993 RMK A01 T02060161  RH  076%=      5-min Rain = 0
KPD2 260030Z 14008KT 21/16 A2993 RMK A01 T02050159  RH  075%=      5-min Rain = 0
KPD2 260031Z 14008KT 21/16 A2993 RMK A01 T02050157  RH  074%=      5-min Rain = 0
KPD2 260032Z 15009KT 21/16 A2993 RMK A01 T02050157  RH  073%=      5-min Rain = 0
KPD2 260033Z 14007KT 21/16 A2993 RMK A01 T02060157  RH  073%=      5-min Rain = 0
KPD2 260034Z 15009KT 21/16 A2993 RMK A01 T02060156  RH  073%=      5-min Rain = 0
KPD2 260035Z 15008KT 21/16 A2993 RMK A01 T02070156  RH  073%=      5-min Rain = 0
KPD2 260036Z 14008KT 21/16 A2993 RMK A01 T02070157  RH  073%=      5-min Rain = 0
KPD2 260037Z 15009KT 21/16 A2993 RMK A01 T02070158  RH  073%=      5-min Rain = 0
KPD2 260038Z 15007G12KT 21/16 A2993 RMK A01 T02080160  RH  074%=      5-min Rain = 0
KPD2 260039Z 14007KT 21/16 A2992 RMK A01 T02070160  RH  074%=      5-min Rain = 0
KPD2 260040Z 15006KT 21/16 A2992 RMK A01 T02070162  RH  075%=      5-min Rain = 0
KPD2 260041Z 14006KT 21/16 A2992 RMK A01 T02070162  RH  075%=      5-min Rain = 0
KPD2 260042Z 13005KT 21/16 A2992 RMK A01 T02070163  RH  075%=      5-min Rain = 0
KPD2 260043Z 13005KT 21/16 A2992 RMK A01 T02080164  RH  076%=      5-min Rain = 0
KPD2 260044Z 12005KT 21/17 A2991 RMK A01 T02080166  RH  077%=      5-min Rain = 0
KPD2 260045Z 12005KT 21/17 A2992 RMK A01 T02080165  RH  076%=      5-min Rain = 0
KPD2 260046Z 13004KT 21/17 A2992 RMK A01 T02080166  RH  077%=      5-min Rain = 0
KPD2 260047Z 12004KT 21/16 A2992 RMK A01 T02070164  RH  076%=      5-min Rain = 0
KPD2 260048Z 11004KT 21/17 A2991 RMK A01 T02080165  RH  077%=      5-min Rain = 0
KPD2 260049Z 10005KT 21/17 A2991 RMK A01 T02080167  RH  078%=      5-min Rain = 0
KPD2 260050Z 11004KT 21/16 A2991 RMK A01 T02080164  RH  076%=      5-min Rain = 0
KPD2 260051Z 10004KT 21/16 A2991 RMK A01 T02080164  RH  076%=      5-min Rain = 0
KPD2 260052Z 12003KT 21/17 A2991 RMK A01 T02090166  RH  076%=      5-min Rain = 0
KPD2 260053Z 13003KT 21/17 A2991 RMK A01 T02100165  RH  076%=      5-min Rain = 0
KPD2 260054Z 10001KT 21/17 A2991 RMK A01 T02110168  RH  076%=      5-min Rain = 0
KPD2 260055Z 08003KT 21/17 A299 RMK A01 T02120168  RH  076%=      5-min Rain = 0
KPD2 260056Z 08003KT 21/17 A299 RMK A01 T02120166  RH  075%=      5-min Rain = 0
KPD2 260057Z 07003KT 21/17 A299 RMK A01 T02130168  RH  075%=      5-min Rain = 0
KPD2 260058Z 06003KT 21/17 A299 RMK A01 T02130167  RH  075%=      5-min Rain = 0
KPD2 260059Z 05004KT 21/17 A299 RMK A01 T02130167  RH  075%=      5-min Rain = 0
KPD2 260100Z 05003KT 21/16 A299 RMK A01 T02130164  RH  074%=      5-min Rain = 0
KPD2 260101Z 06004KT 21/17 A299 RMK A01 T02130165  RH  074%=      5-min Rain = 0
KPD2 260102Z 08004KT 21/17 A299 RMK A01 T02120165  RH  074%=      5-min Rain = 0
KPD2 260103Z 13005KT 21/17 A299 RMK A01 T02120167  RH  075%=      5-min Rain = 0
KPD2 260104Z 16006KT 21/17 A2991 RMK A01 T02120168  RH  076%=      5-min Rain = 0
KPD2 260105Z 15007KT 21/17 A2991 RMK A01 T02120169  RH  076%=      5-min Rain = 0
KPD2 260106Z 15006KT 21/17 A2991 RMK A01 T02120168  RH  076%=      5-min Rain = 0
KPD2 260107Z 14006KT 21/17 A2991 RMK A01 T02110168  RH  076%=      5-min Rain = 0
KPD2 260108Z 13006KT 21/17 A2991 RMK A01 T02100168  RH  077%=      5-min Rain = 0
KPD2 260109Z 13004KT 21/17 A2991 RMK A01 T02090169  RH  077%=      5-min Rain = 0
KPD2 260110Z 12004KT 21/17 A2991 RMK A01 T02090168  RH  077%=      5-min Rain = 0
KPD2 260111Z 13003KT 21/17 A2991 RMK A01 T02090170  RH  078%=      5-min Rain = 0
KPD2 260112Z 12004KT 21/17 A2991 RMK A01 T02080170  RH  079%=      5-min Rain = 0
KPD2 260113Z 10004KT 21/17 A299 RMK A01 T02080171  RH  079%=      5-min Rain = 0
KPD2 260114Z 10004KT 21/17 A299 RMK A01 T02080171  RH  080%=      5-min Rain = 0
KPD2 260115Z 11005KT 21/17 A299 RMK A01 T02070171  RH  080%=      5-min Rain = 0
KPD2 260116Z 12004KT 21/17 A299 RMK A01 T02070172  RH  080%=      5-min Rain = 0
KPD2 260117Z 12006KT 21/17 A2991 RMK A01 T02060172  RH  081%=      5-min Rain = 0
KPD2 260118Z 14008KT 21/17 A2992 RMK A01 T02070172  RH  080%=      5-min Rain = 0
KPD2 260119Z 14012KT 21/17 A2992 RMK A01 T02060171  RH  080%=      5-min Rain = 0
KPD2 260120Z 14012KT 21/17 A2993 RMK A01 T02060170  RH  080%=      5-min Rain = 0
KPD2 260121Z 14010KT 21/17 A2993 RMK A01 T02050170  RH  080%=      5-min Rain = 0
KPD2 260122Z 14008KT 21/17 A2992 RMK A01 T02060170  RH  080%=      5-min Rain = 0
KPD2 260123Z 13008KT 21/17 A2992 RMK A01 T02060169  RH  080%=      5-min Rain = 0
KPD2 260124Z 13008KT 21/17 A2992 RMK A01 T02060170  RH  080%=      5-min Rain = 0
KPD2 260125Z 14008KT 21/17 A2992 RMK A01 T02050171  RH  081%=      5-min Rain = 0
KPD2 260126Z 13007KT 20/17 A2992 RMK A01 T02040171  RH  081%=      5-min Rain = 0
KPD2 260127Z 14008KT 20/17 A2992 RMK A01 T02030171  RH  082%=      5-min Rain = 0
KPD2 260128Z 14008KT 20/17 A2992 RMK A01 T02030171  RH  082%=      5-min Rain = 0
KPD2 260129Z 13007KT 20/17 A2992 RMK A01 T02020171  RH  082%=      5-min Rain = 0
KPD2 260130Z 14007KT 20/17 A2992 RMK A01 T02020171  RH  082%=      5-min Rain = 0
KPD2 260131Z 14008KT 20/17 A2992 RMK A01 T02020170  RH  082%=      5-min Rain = 0
KPD2 260132Z 15009KT 20/17 A2992 RMK A01 T02020169  RH  081%=      5-min Rain = 0
KPD2 260133Z 14008KT 20/17 A2992 RMK A01 T02030167  RH  080%=      5-min Rain = 0
KPD2 260134Z 14008KT 20/17 A2992 RMK A01 T02040168  RH  080%=      5-min Rain = 0
KPD2 260135Z 15008KT 20/17 A2992 RMK A01 T02040168  RH  079%=      5-min Rain = 0
KPD2 260136Z 14007KT 20/17 A2992 RMK A01 T02040168  RH  080%=      5-min Rain = 0
KPD2 260137Z 14006KT 20/17 A2992 RMK A01 T02040168  RH  080%=      5-min Rain = 0
KPD2 260138Z 13006KT 20/17 A2992 RMK A01 T02040168  RH  080%=      5-min Rain = 0
KPD2 260139Z 14006KT 20/17 A2992 RMK A01 T02030168  RH  081%=      5-min Rain = 0
KPD2 260140Z 14007KT 20/17 A2992 RMK A01 T02020168  RH  081%=      5-min Rain = 0
KPD2 260141Z 13009KT 20/17 A2992 RMK A01 T02020168  RH  081%=      5-min Rain = 0
KPD2 260142Z 14009KT 20/17 A2992 RMK A01 T02010167  RH  081%=      5-min Rain = 0
KPD2 260143Z 14008KT 20/17 A2992 RMK A01 T02020167  RH  081%=      5-min Rain = 0
KPD2 260144Z 13007KT 20/17 A2992 RMK A01 T02020168  RH  081%=      5-min Rain = 0
KPD2 260145Z 13008KT 20/17 A2992 RMK A01 T02010168  RH  081%=      5-min Rain = 0
KPD2 260146Z 14007KT 20/17 A2992 RMK A01 T02010167  RH  081%=      5-min Rain = 0
KPD2 260147Z 14007KT 20/17 A2992 RMK A01 T02010166  RH  080%=      5-min Rain = 0
KPD2 260148Z 15008KT 20/17 A2992 RMK A01 T02010166  RH  080%=      5-min Rain = 0
KPD2 260149Z 15008KT 20/17 A2992 RMK A01 T02020166  RH  080%=      5-min Rain = 0
KPD2 260150Z 15008KT 20/17 A2992 RMK A01 T02020166  RH  079%=      5-min Rain = 0
KPD2 260151Z 15008KT 20/17 A2992 RMK A01 T02030165  RH  079%=      5-min Rain = 0
KPD2 260152Z 15007KT 20/17 A2992 RMK A01 T02030166  RH  079%=      5-min Rain = 0
KPD2 260153Z 15008KT 20/17 A2992 RMK A01 T02030166  RH  079%=      5-min Rain = 0
KPD2 260154Z 15007KT 20/17 A2991 RMK A01 T02030166  RH  079%=      5-min Rain = 0
KPD2 260155Z 15007KT 20/17 A2991 RMK A01 T02030166  RH  079%=      5-min Rain = 0
KPD2 260156Z 14006KT 20/17 A2991 RMK A01 T02030166  RH  079%=      5-min Rain = 0
KPD2 260157Z 14006KT 20/17 A2991 RMK A01 T02030167  RH  080%=      5-min Rain = 0
KPD2 260158Z 15007KT 20/17 A2991 RMK A01 T02030167  RH  080%=      5-min Rain = 0
KPD2 260159Z 15007KT 20/17 A2991 RMK A01 T02020167  RH  080%=      5-min Rain = 0
KPD2 260200Z 15007KT 20/17 A2991 RMK A01 T02020168  RH  080%=      5-min Rain = 0
KPD2 260201Z 15006KT 20/17 A2991 RMK A01 T02020167  RH  081%=      5-min Rain = 0
KPD2 260202Z 15006KT 20/17 A2991 RMK A01 T02010167  RH  081%=      5-min Rain = 0
KPD2 260203Z 14007KT 20/17 A2991 RMK A01 T02010167  RH  081%=      5-min Rain = 0
KPD2 260204Z 15007KT 20/17 A2991 RMK A01 T02010167  RH  081%=      5-min Rain = 0
KPD2 260205Z 14006KT 20/17 A2991 RMK A01 T02020167  RH  081%=      5-min Rain = 0
KPD2 260206Z 15009KT 20/17 A2991 RMK A01 T02010167  RH  081%=      5-min Rain = 0
KPD2 260207Z 14008KT 20/17 A2991 RMK A01 T02020167  RH  080%=      5-min Rain = 0
KPD2 260208Z 14007KT 20/17 A2991 RMK A01 T02020167  RH  080%=      5-min Rain = 0
KPD2 260209Z 14007KT 20/17 A2991 RMK A01 T02030167  RH  080%=      5-min Rain = 0
KPD2 260210Z 15008KT 20/17 A2991 RMK A01 T02030167  RH  080%=      5-min Rain = 0
KPD2 260211Z 14006KT 20/17 A2991 RMK A01 T02030167  RH  080%=      5-min Rain = 0
KPD2 260212Z 13007KT 20/17 A2991 RMK A01 T02030167  RH  080%=      5-min Rain = 0
KPD2 260213Z 14007KT 20/17 A2991 RMK A01 T02030167  RH  080%=      5-min Rain = 0
KPD2 260214Z 14007KT 20/17 A2991 RMK A01 T02030167  RH  080%=      5-min Rain = 0
KPD2 260215Z 13007KT 20/17 A2991 RMK A01 T02030168  RH  080%=      5-min Rain = 0
KPD2 260216Z 14007KT 20/17 A2991 RMK A01 T02020168  RH  080%=      5-min Rain = 0
KPD2 260217Z 13006KT 20/17 A2991 RMK A01 T02020168  RH  081%=      5-min Rain = 0
KPD2 260218Z 13007KT 20/17 A2991 RMK A01 T02010168  RH  081%=      5-min Rain = 0
KPD2 260219Z 14007KT 20/17 A2991 RMK A01 T02010168  RH  081%=      5-min Rain = 0
KPD2 260220Z 13006KT 20/17 A2991 RMK A01 T02000168  RH  082%=      5-min Rain = 0
KPD2 260221Z 13007KT 20/17 A2991 RMK A01 T01990167  RH  082%=      5-min Rain = 0
KPD2 260222Z 13006KT 20/17 A2991 RMK A01 T01990168  RH  082%=      5-min Rain = 0
KPD2 260223Z 14005KT 20/17 A2991 RMK A01 T01980167  RH  082%=      5-min Rain = 0
KPD2 260224Z 13005KT 20/17 A2991 RMK A01 T01980168  RH  082%=      5-min Rain = 0
KPD2 260225Z 14006KT 20/17 A2991 RMK A01 T01980167  RH  083%=      5-min Rain = 0
KPD2 260226Z 13006KT 20/17 A2991 RMK A01 T01980167  RH  083%=      5-min Rain = 0
KPD2 260227Z 13006KT 20/17 A2991 RMK A01 T01980168  RH  083%=      5-min Rain = 0
KPD2 260228Z 13005KT 20/17 A2991 RMK A01 T01970168  RH  083%=      5-min Rain = 0
KPD2 260229Z 13005KT 20/17 A2991 RMK A01 T01970168  RH  083%=      5-min Rain = 0
KPD2 260230Z 12005KT 20/17 A2991 RMK A01 T01960168  RH  084%=      5-min Rain = 0
KPD2 260231Z 13004KT 20/17 A2991 RMK A01 T01960167  RH  084%=      5-min Rain = 0
KPD2 260232Z 12004KT 20/17 A2991 RMK A01 T01950167  RH  084%=      5-min Rain = 0
KPD2 260233Z 13003KT 20/17 A2991 RMK A01 T01950167  RH  084%=      5-min Rain = 0
KPD2 260234Z 13004KT 20/17 A2991 RMK A01 T01950168  RH  084%=      5-min Rain = 0
KPD2 260235Z 12005KT 19/17 A2991 RMK A01 T01940167  RH  084%=      5-min Rain = 0
KPD2 260236Z 13004KT 19/17 A2991 RMK A01 T01940167  RH  085%=      5-min Rain = 0
KPD2 260237Z 13004KT 19/17 A2991 RMK A01 T01940167  RH  085%=      5-min Rain = 0
KPD2 260238Z 13004KT 19/17 A2991 RMK A01 T01940167  RH  085%=      5-min Rain = 0
KPD2 260239Z 13004KT 19/17 A299 RMK A01 T01940167  RH  085%=      5-min Rain = 0
KPD2 260240Z 13003KT 19/17 A299 RMK A01 T01930167  RH  085%=      5-min Rain = 0
KPD2 260241Z 12002KT 19/17 A299 RMK A01 T01930167  RH  085%=      5-min Rain = 0
KPD2 260242Z 13004KT 19/17 A299 RMK A01 T01930167  RH  085%=      5-min Rain = 0
KPD2 260243Z 13004KT 19/17 A299 RMK A01 T01930166  RH  085%=      5-min Rain = 0
KPD2 260244Z 12004KT 19/17 A299 RMK A01 T01930166  RH  085%=      5-min Rain = 0
KPD2 260245Z 13004KT 19/17 A299 RMK A01 T01930166  RH  084%=      5-min Rain = 0
KPD2 260246Z 12003KT 19/17 A299 RMK A01 T01930166  RH  084%=      5-min Rain = 0
KPD2 260247Z 13004KT 19/17 A299 RMK A01 T01930166  RH  084%=      5-min Rain = 0
KPD2 260248Z 12003KT 19/17 A299 RMK A01 T01930166  RH  084%=      5-min Rain = 0
KPD2 260249Z 13003KT 19/17 A299 RMK A01 T01930166  RH  084%=      5-min Rain = 0
KPD2 260250Z 12003KT 19/17 A299 RMK A01 T01930165  RH  084%=      5-min Rain = 0
KPD2 260251Z 12003KT 19/17 A299 RMK A01 T01930165  RH  084%=      5-min Rain = 0
KPD2 260252Z 12003KT 19/17 A299 RMK A01 T01930166  RH  084%=      5-min Rain = 0
KPD2 260253Z 11004KT 19/17 A299 RMK A01 T01930165  RH  084%=      5-min Rain = 0
KPD2 260254Z 12004KT 19/17 A299 RMK A01 T01930165  RH  084%=      5-min Rain = 0
KPD2 260255Z 12004KT 19/16 A299 RMK A01 T01930164  RH  084%=      5-min Rain = 0
KPD2 260256Z 11005KT 19/16 A299 RMK A01 T01930164  RH  083%=      5-min Rain = 0
KPD2 260257Z 11005KT 19/16 A299 RMK A01 T01930164  RH  083%=      5-min Rain = 0
KPD2 260258Z 11004KT 19/16 A299 RMK A01 T01930164  RH  083%=      5-min Rain = 0
KPD2 260259Z 11005KT 19/16 A299 RMK A01 T01930163  RH  083%=      5-min Rain = 0
KPD2 260300Z 11006KT 19/16 A299 RMK A01 T01940163  RH  082%=      5-min Rain = 0
KPD2 260301Z 13007KT 20/16 A299 RMK A01 T01950162  RH  081%=      5-min Rain = 0
KPD2 260302Z 12006KT 20/16 A2991 RMK A01 T01970164  RH  081%=      5-min Rain = 0
KPD2 260303Z 12005KT 20/16 A2991 RMK A01 T01990163  RH  080%=      5-min Rain = 0
KPD2 260304Z 10006KT 20/16 A2991 RMK A01 T02000164  RH  079%=      5-min Rain = 0
KPD2 260305Z 10006KT 20/17 A2991 RMK A01 T02010165  RH  079%=      5-min Rain = 0
KPD2 260306Z 12006KT 20/17 A2991 RMK A01 T02030165  RH  079%=      5-min Rain = 0
KPD2 260307Z 12009KT 21/17 A2991 RMK A01 T02050167  RH  079%=      5-min Rain = 0
KPD2 260308Z 11007KT 21/17 A2991 RMK A01 T02060168  RH  078%=      5-min Rain = 0
KPD2 260309Z 12005KT 21/17 A2991 RMK A01 T02080168  RH  078%=      5-min Rain = 0
KPD2 260310Z 11003KT 21/17 A2991 RMK A01 T02080169  RH  078%=      5-min Rain = 0
KPD2 260311Z 12007KT 21/17 A2991 RMK A01 T02080169  RH  078%=      5-min Rain = 0
KPD2 260312Z 11007KT 21/17 A2991 RMK A01 T02090169  RH  078%=      5-min Rain = 0
KPD2 260313Z 12005KT 21/17 A2991 RMK A01 T02090170  RH  078%=      5-min Rain = 0
KPD2 260314Z 12007KT 21/17 A2991 RMK A01 T02090170  RH  078%=      5-min Rain = 0
KPD2 260315Z 12005KT 21/17 A2991 RMK A01 T02090171  RH  079%=      5-min Rain = 0
KPD2 260316Z 11006KT 21/17 A2991 RMK A01 T02090171  RH  079%=      5-min Rain = 0
KPD2 260317Z 11007KT 21/17 A2991 RMK A01 T02090172  RH  079%=      5-min Rain = 0
KPD2 260318Z 11006KT 21/17 A2991 RMK A01 T02100173  RH  079%=      5-min Rain = 0
KPD2 260319Z 11005KT 21/17 A2991 RMK A01 T02110173  RH  079%=      5-min Rain = 0
KPD2 260320Z 11005KT 21/17 A2991 RMK A01 T02100173  RH  079%=      5-min Rain = 0
KPD2 260321Z 11004KT 21/17 A2991 RMK A01 T02100173  RH  079%=      5-min Rain = 0
KPD2 260322Z 11004KT 21/17 A2991 RMK A01 T02110173  RH  079%=      5-min Rain = 0
KPD2 260323Z 10006KT 21/17 A2991 RMK A01 T02100174  RH  080%=      5-min Rain = 0
KPD2 260324Z 11005KT 21/18 A2991 RMK A01 T02100175  RH  080%=      5-min Rain = 0
KPD2 260325Z 11006KT 21/18 A2991 RMK A01 T02100175  RH  080%=      5-min Rain = 0
KPD2 260326Z 11004KT 21/18 A2991 RMK A01 T02100175  RH  080%=      5-min Rain = 0
KPD2 260327Z 12005KT 21/18 A2991 RMK A01 T02100175  RH  080%=      5-min Rain = 0
KPD2 260328Z 11005KT 21/18 A2991 RMK A01 T02100175  RH  080%=      5-min Rain = 0
KPD2 260329Z 11007KT 21/18 A2991 RMK A01 T02100175  RH  081%=      5-min Rain = 0
KPD2 260330Z 11006KT 21/18 A2992 RMK A01 T02090176  RH  081%=      5-min Rain = 0
KPD2 260331Z 11005KT 21/18 A2992 RMK A01 T02090176  RH  081%=      5-min Rain = 0
KPD2 260332Z 12003KT 21/18 A2992 RMK A01 T02090176  RH  081%=      5-min Rain = 0
KPD2 260333Z 11006KT 21/18 A2992 RMK A01 T02090176  RH  081%=      5-min Rain = 0
KPD2 260334Z 10004KT 21/18 A2992 RMK A01 T02090177  RH  082%=      5-min Rain = 0
KPD2 260335Z 11008KT 21/18 A2992 RMK A01 T02090177  RH  082%=      5-min Rain = 0
KPD2 260336Z 10008KT 21/18 A2992 RMK A01 T02090177  RH  082%=      5-min Rain = 0
KPD2 260337Z 11006KT 21/18 A2992 RMK A01 T02110178  RH  082%=      5-min Rain = 0
KPD2 260338Z 13006KT 21/18 A2992 RMK A01 T02110178  RH  081%=      5-min Rain = 0
KPD2 260339Z 14004KT 21/18 A2992 RMK A01 T02120178  RH  081%=      5-min Rain = 0
KPD2 260340Z 14005KT 21/18 A2992 RMK A01 T02120177  RH  081%=      5-min Rain = 0
KPD2 260341Z 12005KT 21/18 A2992 RMK A01 T02120178  RH  081%=      5-min Rain = 0
KPD2 260342Z 11004KT 21/18 A2992 RMK A01 T02120179  RH  081%=      5-min Rain = 0
KPD2 260343Z 14004KT 21/18 A2992 RMK A01 T02110179  RH  082%=      5-min Rain = 0
KPD2 260344Z 11003KT 21/18 A2992 RMK A01 T02110179  RH  082%=      5-min Rain = 0
KPD2 260345Z 11007KT 21/18 A2992 RMK A01 T02110179  RH  082%=      5-min Rain = 0
KPD2 260346Z 10005KT 21/18 A2992 RMK A01 T02110179  RH  082%=      5-min Rain = 0
KPD2 260347Z 13004KT 21/18 A2992 RMK A01 T02100179  RH  082%=      5-min Rain = 0
KPD2 260348Z 12005KT 21/18 A2992 RMK A01 T02100179  RH  083%=      5-min Rain = 0
KPD2 260349Z 10006KT 21/18 A2992 RMK A01 T02090179  RH  083%=      5-min Rain = 0
KPD2 260350Z 11006KT 21/18 A2992 RMK A01 T02100180  RH  083%=      5-min Rain = 0
KPD2 260351Z 12005KT 21/18 A2992 RMK A01 T02090180  RH  083%=      5-min Rain = 0
KPD2 260352Z 12004KT 21/18 A2992 RMK A01 T02100180  RH  083%=      5-min Rain = 0
KPD2 260353Z 10005KT 21/18 A2992 RMK A01 T02110180  RH  083%=      5-min Rain = 0
KPD2 260354Z 13005KT 21/18 A2992 RMK A01 T02110180  RH  083%=      5-min Rain = 0
KPD2 260355Z 12006KT 21/18 A2992 RMK A01 T02100180  RH  083%=      5-min Rain = 0
KPD2 260356Z 12004KT 21/18 A2992 RMK A01 T02110181  RH  083%=      5-min Rain = 0
KPD2 260357Z 15005KT 21/18 A2992 RMK A01 T02110180  RH  083%=      5-min Rain = 0
KPD2 260358Z 15005KT 21/18 A2992 RMK A01 T02100179  RH  082%=      5-min Rain = 0
KPD2 260359Z 15006KT 21/18 A2992 RMK A01 T02090177  RH  082%=      5-min Rain = 0
KPD2 260400Z 13005KT 21/18 A2992 RMK A01 T02070176  RH  083%=      5-min Rain = 0
KPD2 260401Z 13005KT 21/18 A2992 RMK A01 T02060177  RH  084%=      5-min Rain = 0
KPD2 260402Z 12005KT 21/18 A2992 RMK A01 T02060178  RH  084%=      5-min Rain = 0
KPD2 260403Z 14006KT 21/18 A2992 RMK A01 T02060180  RH  085%=      5-min Rain = 0
KPD2 260404Z 13006KT 21/18 A2992 RMK A01 T02070180  RH  084%=      5-min Rain = 0
KPD2 260405Z 13007KT 21/18 A2992 RMK A01 T02070179  RH  084%=      5-min Rain = 0
KPD2 260406Z 12006KT 21/18 A2992 RMK A01 T02070180  RH  084%=      5-min Rain = 0
KPD2 260407Z 13004KT 21/18 A2992 RMK A01 T02070180  RH  085%=      5-min Rain = 0
KPD2 260408Z 14004KT 21/18 A2992 RMK A01 T02070180  RH  085%=      5-min Rain = 0
KPD2 260409Z 14005KT 21/18 A2992 RMK A01 T02070180  RH  085%=      5-min Rain = 0
KPD2 260410Z 13005KT 21/18 A2992 RMK A01 T02070181  RH  085%=      5-min Rain = 0
KPD2 260411Z 15005KT 21/18 A2993 RMK A01 T02070180  RH  085%=      5-min Rain = 0
KPD2 260412Z 14006KT 21/18 A2993 RMK A01 T02070180  RH  084%=      5-min Rain = 0
KPD2 260413Z 14005KT 21/18 A2993 RMK A01 T02080181  RH  085%=      5-min Rain = 0
KPD2 260414Z 13004KT 21/18 A2993 RMK A01 T02070181  RH  085%=      5-min Rain = 0
KPD2 260415Z 14006KT 21/18 A2993 RMK A01 T02070181  RH  085%=      5-min Rain = 0
KPD2 260416Z 12006KT 21/18 A2993 RMK A01 T02070181  RH  085%=      5-min Rain = 0
KPD2 260417Z 14007KT 21/18 A2993 RMK A01 T02070181  RH  085%=      5-min Rain = 0
KPD2 260418Z 14005KT 21/18 A2993 RMK A01 T02080182  RH  085%=      5-min Rain = 0
KPD2 260419Z 15006KT 21/18 A2993 RMK A01 T02100182  RH  084%=      5-min Rain = 0
KPD2 260420Z 14004KT 21/18 A2993 RMK A01 T02100182  RH  084%=      5-min Rain = 0
KPD2 260421Z 14004KT 21/18 A2993 RMK A01 T02100182  RH  084%=      5-min Rain = 0
KPD2 260422Z 14007KT 21/18 A2993 RMK A01 T02100182  RH  084%=      5-min Rain = 0
KPD2 260423Z 14006KT 21/18 A2993 RMK A01 T02090181  RH  084%=      5-min Rain = 0
KPD2 260424Z 15007KT 21/18 A2993 RMK A01 T02080182  RH  085%=      5-min Rain = 0
KPD2 260425Z 14007KT 21/18 A2993 RMK A01 T02080182  RH  085%=      5-min Rain = 0
KPD2 260426Z 13007KT 21/18 A2993 RMK A01 T02090182  RH  085%=      5-min Rain = 0
KPD2 260427Z 14005KT 21/18 A2993 RMK A01 T02090182  RH  084%=      5-min Rain = 0
KPD2 260428Z 14004KT 21/18 A2993 RMK A01 T02090182  RH  085%=      5-min Rain = 0
KPD2 260429Z 14005KT 21/18 A2993 RMK A01 T02090182  RH  085%=      5-min Rain = 0
KPD2 260430Z 13004KT 21/18 A2993 RMK A01 T02080182  RH  085%=      5-min Rain = 0
KPD2 260431Z 12004KT 21/18 A2993 RMK A01 T02080182  RH  085%=      5-min Rain = 0
KPD2 260432Z 11004KT 21/18 A2993 RMK A01 T02070182  RH  085%=      5-min Rain = 0
KPD2 260433Z 16003KT 21/18 A2993 RMK A01 T02070182  RH  086%=      5-min Rain = 0
KPD2 260434Z 14005KT 21/18 A2993 RMK A01 T02070182  RH  086%=      5-min Rain = 0
KPD2 260435Z 13004KT 21/18 A2993 RMK A01 T02070182  RH  086%=      5-min Rain = 0
KPD2 260436Z 13004G9KT 21/18 A2993 RMK A01 T02080183  RH  086%=      5-min Rain = 0
KPD2 260437Z 14005KT 21/18 A2994 RMK A01 T02070183  RH  086%=      5-min Rain = 0
KPD2 260438Z 15006KT 21/18 A2994 RMK A01 T02080183  RH  086%=      5-min Rain = 0
KPD2 260439Z 14006KT 21/18 A2994 RMK A01 T02080183  RH  085%=      5-min Rain = 0
KPD2 260440Z 12007KT 21/18 A2994 RMK A01 T02090183  RH  085%=      5-min Rain = 0
KPD2 260441Z 12007KT 21/18 A2994 RMK A01 T02090183  RH  085%=      5-min Rain = 0
KPD2 260442Z 12006KT 21/18 A2993 RMK A01 T02090184  RH  085%=      5-min Rain = 0
KPD2 260443Z 16005KT 21/18 A2994 RMK A01 T02090183  RH  085%=      5-min Rain = 0
KPD2 260444Z 15006KT 21/18 A2994 RMK A01 T02090183  RH  085%=      5-min Rain = 0
KPD2 260445Z 15005KT 21/18 A2994 RMK A01 T02090183  RH  085%=      5-min Rain = 0
KPD2 260446Z 13004KT 21/18 A2994 RMK A01 T02080183  RH  085%=      5-min Rain = 0
KPD2 260447Z 14005KT 21/18 A2994 RMK A01 T02070183  RH  086%=      5-min Rain = 0
KPD2 260448Z 11007KT 21/18 A2994 RMK A01 T02070183  RH  086%=      5-min Rain = 0
KPD2 260449Z 10007KT 21/18 A2993 RMK A01 T02070184  RH  086%=      5-min Rain = 0
KPD2 260450Z 11006KT 21/18 A2993 RMK A01 T02090184  RH  086%=      5-min Rain = 0
KPD2 260451Z 11006KT 21/18 A2993 RMK A01 T02100184  RH  085%=      5-min Rain = 0
KPD2 260452Z 12008G13KT 21/18 A2994 RMK A01 T02120184  RH  084%=      5-min Rain = 0
KPD2 260453Z 13013KT 21/19 A2994 RMK A01 T02130185  RH  084%=      5-min Rain = 0
KPD2 260454Z 13011KT 21/19 A2994 RMK A01 T02140185  RH  083%=      5-min Rain = 0
KPD2 260455Z 12009G14KT 22/19 A2994 RMK A01 T02160185  RH  083%=      5-min Rain = 0
KPD2 260456Z 12009KT 22/19 A2994 RMK A01 T02160185  RH  082%=      5-min Rain = 0
KPD2 260457Z 11005KT 22/18 A2994 RMK A01 T02160184  RH  082%=      5-min Rain = 0
KPD2 260458Z 13007KT 22/19 A2994 RMK A01 T02160185  RH  082%=      5-min Rain = 0
KPD2 260459Z 13006KT 22/19 A2994 RMK A01 T02160185  RH  083%=      5-min Rain = 0

Page generated in 0.1216 seconds.